<?xml version="1.0" encoding="UTF-8" standalone="no" ?>
<gpx xmlns="http://www.topografix.com/GPX/1/1" xmlns:xsi="http://www.w3.org/2001/XMLSchema-instance" xsi:schemaLocation="http://www.topografix.com/GPX/1/1 http://www.topografix.com/GPX/1/1/gpx.xsd" version="1.1" creator="VisuGPX - https://www.visugpx.com">
  <metadata>
    <name>PC - 2022 09 15 - BAUME LES MESSIEURS</name>
  </metadata>
  <trk>
    <name><![CDATA[PC - 2022 09 15 - BAUME LES MESSIEURS]]></name>
    <trkseg>
      <trkpt lat="46.7095" lon="5.64687">
        <ele>309.79998779297</ele>
        <time>2022-09-15T08:19:51Z</time>
      </trkpt>
      <trkpt lat="46.70949" lon="5.64688">
        <ele>310.39999389648</ele>
        <time>2022-09-15T08:19:52Z</time>
      </trkpt>
      <trkpt lat="46.70937" lon="5.64693">
        <ele>311.60000610352</ele>
        <time>2022-09-15T08:20:05Z</time>
      </trkpt>
      <trkpt lat="46.70932" lon="5.64697">
        <ele>312</ele>
        <time>2022-09-15T08:20:17Z</time>
      </trkpt>
      <trkpt lat="46.70921" lon="5.64703">
        <ele>312.20001220703</ele>
        <time>2022-09-15T08:20:29Z</time>
      </trkpt>
      <trkpt lat="46.7091" lon="5.64712">
        <ele>312</ele>
        <time>2022-09-15T08:20:43Z</time>
      </trkpt>
      <trkpt lat="46.70893" lon="5.64721">
        <ele>311.39999389648</ele>
        <time>2022-09-15T08:21:02Z</time>
      </trkpt>
      <trkpt lat="46.70877" lon="5.64726">
        <ele>310.79998779297</ele>
        <time>2022-09-15T08:21:13Z</time>
      </trkpt>
      <trkpt lat="46.70861" lon="5.64733">
        <ele>310</ele>
        <time>2022-09-15T08:21:27Z</time>
      </trkpt>
      <trkpt lat="46.70846" lon="5.64742">
        <ele>309</ele>
        <time>2022-09-15T08:21:41Z</time>
      </trkpt>
      <trkpt lat="46.70832" lon="5.64752">
        <ele>307.60000610352</ele>
        <time>2022-09-15T08:21:55Z</time>
      </trkpt>
      <trkpt lat="46.70815" lon="5.64761">
        <ele>306</ele>
        <time>2022-09-15T08:22:10Z</time>
      </trkpt>
      <trkpt lat="46.70802" lon="5.6476">
        <ele>304.79998779297</ele>
        <time>2022-09-15T08:22:20Z</time>
      </trkpt>
      <trkpt lat="46.70788" lon="5.64748">
        <ele>303.39999389648</ele>
        <time>2022-09-15T08:22:33Z</time>
      </trkpt>
      <trkpt lat="46.70786" lon="5.64739">
        <ele>302.20001220703</ele>
        <time>2022-09-15T08:22:43Z</time>
      </trkpt>
      <trkpt lat="46.70786" lon="5.64737">
        <ele>302</ele>
        <time>2022-09-15T08:22:44Z</time>
      </trkpt>
      <trkpt lat="46.70786" lon="5.64728">
        <ele>301.79998779297</ele>
        <time>2022-09-15T08:22:49Z</time>
      </trkpt>
      <trkpt lat="46.70787" lon="5.64714">
        <ele>301.20001220703</ele>
        <time>2022-09-15T08:22:57Z</time>
      </trkpt>
      <trkpt lat="46.70784" lon="5.64698">
        <ele>300.79998779297</ele>
        <time>2022-09-15T08:23:11Z</time>
      </trkpt>
      <trkpt lat="46.70782" lon="5.64694">
        <ele>300.60000610352</ele>
        <time>2022-09-15T08:23:19Z</time>
      </trkpt>
      <trkpt lat="46.70782" lon="5.64687">
        <ele>300.39999389648</ele>
        <time>2022-09-15T08:23:23Z</time>
      </trkpt>
      <trkpt lat="46.70779" lon="5.64668">
        <ele>300.39999389648</ele>
        <time>2022-09-15T08:23:35Z</time>
      </trkpt>
      <trkpt lat="46.70777" lon="5.64661">
        <ele>300.39999389648</ele>
        <time>2022-09-15T08:23:40Z</time>
      </trkpt>
      <trkpt lat="46.70771" lon="5.64638">
        <ele>300.60000610352</ele>
        <time>2022-09-15T08:23:53Z</time>
      </trkpt>
      <trkpt lat="46.70769" lon="5.64635">
        <ele>300.60000610352</ele>
        <time>2022-09-15T08:23:56Z</time>
      </trkpt>
      <trkpt lat="46.70766" lon="5.64633">
        <ele>301</ele>
        <time>2022-09-15T08:24:09Z</time>
      </trkpt>
      <trkpt lat="46.70767" lon="5.64636">
        <ele>301.39999389648</ele>
        <time>2022-09-15T08:24:31Z</time>
      </trkpt>
      <trkpt lat="46.70764" lon="5.64634">
        <ele>301.39999389648</ele>
        <time>2022-09-15T08:24:51Z</time>
      </trkpt>
      <trkpt lat="46.70764" lon="5.64631">
        <ele>302</ele>
        <time>2022-09-15T08:25:08Z</time>
      </trkpt>
      <trkpt lat="46.70764" lon="5.6463">
        <ele>301.79998779297</ele>
        <time>2022-09-15T08:25:45Z</time>
      </trkpt>
      <trkpt lat="46.70751" lon="5.64639">
        <ele>302.20001220703</ele>
        <time>2022-09-15T08:26:05Z</time>
      </trkpt>
      <trkpt lat="46.70739" lon="5.64647">
        <ele>303</ele>
        <time>2022-09-15T08:26:15Z</time>
      </trkpt>
      <trkpt lat="46.70735" lon="5.6465">
        <ele>303.39999389648</ele>
        <time>2022-09-15T08:26:20Z</time>
      </trkpt>
      <trkpt lat="46.70726" lon="5.64654">
        <ele>303.60000610352</ele>
        <time>2022-09-15T08:26:31Z</time>
      </trkpt>
      <trkpt lat="46.70723" lon="5.64648">
        <ele>303.79998779297</ele>
        <time>2022-09-15T08:26:46Z</time>
      </trkpt>
      <trkpt lat="46.70721" lon="5.64652">
        <ele>304</ele>
        <time>2022-09-15T08:26:54Z</time>
      </trkpt>
      <trkpt lat="46.70714" lon="5.64656">
        <ele>304</ele>
        <time>2022-09-15T08:26:59Z</time>
      </trkpt>
      <trkpt lat="46.70703" lon="5.64659">
        <ele>304.20001220703</ele>
        <time>2022-09-15T08:27:08Z</time>
      </trkpt>
      <trkpt lat="46.70698" lon="5.64656">
        <ele>304.39999389648</ele>
        <time>2022-09-15T08:27:12Z</time>
      </trkpt>
      <trkpt lat="46.70689" lon="5.64656">
        <ele>304.60000610352</ele>
        <time>2022-09-15T08:27:19Z</time>
      </trkpt>
      <trkpt lat="46.70679" lon="5.64658">
        <ele>305</ele>
        <time>2022-09-15T08:27:29Z</time>
      </trkpt>
      <trkpt lat="46.70661" lon="5.64666">
        <ele>305.60000610352</ele>
        <time>2022-09-15T08:27:42Z</time>
      </trkpt>
      <trkpt lat="46.70638" lon="5.64666">
        <ele>304.79998779297</ele>
        <time>2022-09-15T08:27:58Z</time>
      </trkpt>
      <trkpt lat="46.70627" lon="5.64659">
        <ele>304.39999389648</ele>
        <time>2022-09-15T08:28:06Z</time>
      </trkpt>
      <trkpt lat="46.70625" lon="5.64658">
        <ele>304.39999389648</ele>
        <time>2022-09-15T08:28:08Z</time>
      </trkpt>
      <trkpt lat="46.70615" lon="5.6465">
        <ele>304.60000610352</ele>
        <time>2022-09-15T08:28:19Z</time>
      </trkpt>
      <trkpt lat="46.70604" lon="5.64647">
        <ele>305.60000610352</ele>
        <time>2022-09-15T08:28:31Z</time>
      </trkpt>
      <trkpt lat="46.706" lon="5.6465">
        <ele>306</ele>
        <time>2022-09-15T08:28:36Z</time>
      </trkpt>
      <trkpt lat="46.70586" lon="5.64655">
        <ele>306.60000610352</ele>
        <time>2022-09-15T08:28:47Z</time>
      </trkpt>
      <trkpt lat="46.70575" lon="5.64661">
        <ele>307</ele>
        <time>2022-09-15T08:28:56Z</time>
      </trkpt>
      <trkpt lat="46.70568" lon="5.64664">
        <ele>307.39999389648</ele>
        <time>2022-09-15T08:29:02Z</time>
      </trkpt>
      <trkpt lat="46.7056" lon="5.64667">
        <ele>307.39999389648</ele>
        <time>2022-09-15T08:29:10Z</time>
      </trkpt>
      <trkpt lat="46.70557" lon="5.64667">
        <ele>307.20001220703</ele>
        <time>2022-09-15T08:29:12Z</time>
      </trkpt>
      <trkpt lat="46.70544" lon="5.64667">
        <ele>307</ele>
        <time>2022-09-15T08:29:21Z</time>
      </trkpt>
      <trkpt lat="46.70542" lon="5.64668">
        <ele>307</ele>
        <time>2022-09-15T08:29:23Z</time>
      </trkpt>
      <trkpt lat="46.70533" lon="5.64671">
        <ele>307.20001220703</ele>
        <time>2022-09-15T08:29:31Z</time>
      </trkpt>
      <trkpt lat="46.70528" lon="5.64668">
        <ele>307.39999389648</ele>
        <time>2022-09-15T08:29:38Z</time>
      </trkpt>
      <trkpt lat="46.70517" lon="5.64662">
        <ele>308</ele>
        <time>2022-09-15T08:29:46Z</time>
      </trkpt>
      <trkpt lat="46.705" lon="5.64652">
        <ele>309.20001220703</ele>
        <time>2022-09-15T08:30:00Z</time>
      </trkpt>
      <trkpt lat="46.70488" lon="5.64646">
        <ele>310.39999389648</ele>
        <time>2022-09-15T08:30:11Z</time>
      </trkpt>
      <trkpt lat="46.70482" lon="5.64643">
        <ele>310.60000610352</ele>
        <time>2022-09-15T08:30:17Z</time>
      </trkpt>
      <trkpt lat="46.7047" lon="5.64641">
        <ele>310.60000610352</ele>
        <time>2022-09-15T08:30:28Z</time>
      </trkpt>
      <trkpt lat="46.70466" lon="5.64638">
        <ele>310.79998779297</ele>
        <time>2022-09-15T08:30:31Z</time>
      </trkpt>
      <trkpt lat="46.70461" lon="5.64633">
        <ele>310.79998779297</ele>
        <time>2022-09-15T08:30:37Z</time>
      </trkpt>
      <trkpt lat="46.70459" lon="5.64632">
        <ele>310.79998779297</ele>
        <time>2022-09-15T08:30:40Z</time>
      </trkpt>
      <trkpt lat="46.70446" lon="5.6462">
        <ele>310.60000610352</ele>
        <time>2022-09-15T08:30:52Z</time>
      </trkpt>
      <trkpt lat="46.70429" lon="5.64604">
        <ele>309.60000610352</ele>
        <time>2022-09-15T08:31:03Z</time>
      </trkpt>
      <trkpt lat="46.7042" lon="5.64596">
        <ele>308.39999389648</ele>
        <time>2022-09-15T08:31:15Z</time>
      </trkpt>
      <trkpt lat="46.70418" lon="5.64593">
        <ele>308.20001220703</ele>
        <time>2022-09-15T08:31:19Z</time>
      </trkpt>
      <trkpt lat="46.70416" lon="5.64589">
        <ele>308</ele>
        <time>2022-09-15T08:31:22Z</time>
      </trkpt>
      <trkpt lat="46.70411" lon="5.64576">
        <ele>308</ele>
        <time>2022-09-15T08:31:25Z</time>
      </trkpt>
      <trkpt lat="46.70419" lon="5.64576">
        <ele>308</ele>
        <time>2022-09-15T08:31:32Z</time>
      </trkpt>
      <trkpt lat="46.70423" lon="5.64578">
        <ele>308</ele>
        <time>2022-09-15T08:31:41Z</time>
      </trkpt>
      <trkpt lat="46.7042" lon="5.64571">
        <ele>308</ele>
        <time>2022-09-15T08:31:44Z</time>
      </trkpt>
      <trkpt lat="46.70417" lon="5.64564">
        <ele>307.20001220703</ele>
        <time>2022-09-15T08:31:58Z</time>
      </trkpt>
      <trkpt lat="46.70413" lon="5.6457">
        <ele>306.79998779297</ele>
        <time>2022-09-15T08:32:08Z</time>
      </trkpt>
      <trkpt lat="46.70414" lon="5.6457">
        <ele>306.20001220703</ele>
        <time>2022-09-15T08:32:11Z</time>
      </trkpt>
      <trkpt lat="46.70417" lon="5.64571">
        <ele>305.39999389648</ele>
        <time>2022-09-15T08:32:16Z</time>
      </trkpt>
      <trkpt lat="46.70424" lon="5.6457">
        <ele>304.79998779297</ele>
        <time>2022-09-15T08:32:25Z</time>
      </trkpt>
      <trkpt lat="46.7043" lon="5.64564">
        <ele>304.39999389648</ele>
        <time>2022-09-15T08:32:37Z</time>
      </trkpt>
      <trkpt lat="46.7043" lon="5.64552">
        <ele>304.39999389648</ele>
        <time>2022-09-15T08:32:48Z</time>
      </trkpt>
      <trkpt lat="46.70431" lon="5.64541">
        <ele>304.39999389648</ele>
        <time>2022-09-15T08:33:03Z</time>
      </trkpt>
      <trkpt lat="46.70434" lon="5.64535">
        <ele>304.79998779297</ele>
        <time>2022-09-15T08:33:12Z</time>
      </trkpt>
      <trkpt lat="46.70439" lon="5.64524">
        <ele>306.20001220703</ele>
        <time>2022-09-15T08:33:29Z</time>
      </trkpt>
      <trkpt lat="46.70445" lon="5.64525">
        <ele>306.79998779297</ele>
        <time>2022-09-15T08:33:36Z</time>
      </trkpt>
      <trkpt lat="46.70444" lon="5.64516">
        <ele>308</ele>
        <time>2022-09-15T08:33:47Z</time>
      </trkpt>
      <trkpt lat="46.70438" lon="5.64504">
        <ele>309.20001220703</ele>
        <time>2022-09-15T08:34:00Z</time>
      </trkpt>
      <trkpt lat="46.70439" lon="5.64502">
        <ele>310.60000610352</ele>
        <time>2022-09-15T08:34:12Z</time>
      </trkpt>
      <trkpt lat="46.70428" lon="5.64504">
        <ele>312.20001220703</ele>
        <time>2022-09-15T08:34:31Z</time>
      </trkpt>
      <trkpt lat="46.70426" lon="5.64498">
        <ele>313.20001220703</ele>
        <time>2022-09-15T08:34:47Z</time>
      </trkpt>
      <trkpt lat="46.70414" lon="5.64492">
        <ele>314.20001220703</ele>
        <time>2022-09-15T08:35:02Z</time>
      </trkpt>
      <trkpt lat="46.70405" lon="5.64493">
        <ele>315.60000610352</ele>
        <time>2022-09-15T08:35:18Z</time>
      </trkpt>
      <trkpt lat="46.7039" lon="5.64466">
        <ele>317.20001220703</ele>
        <time>2022-09-15T08:35:57Z</time>
      </trkpt>
      <trkpt lat="46.70389" lon="5.64461">
        <ele>317.79998779297</ele>
        <time>2022-09-15T08:36:02Z</time>
      </trkpt>
      <trkpt lat="46.70388" lon="5.64458">
        <ele>318</ele>
        <time>2022-09-15T08:36:05Z</time>
      </trkpt>
      <trkpt lat="46.70378" lon="5.64437">
        <ele>318.39999389648</ele>
        <time>2022-09-15T08:36:21Z</time>
      </trkpt>
      <trkpt lat="46.70378" lon="5.64435">
        <ele>318.39999389648</ele>
        <time>2022-09-15T08:36:23Z</time>
      </trkpt>
      <trkpt lat="46.70374" lon="5.6442">
        <ele>318.60000610352</ele>
        <time>2022-09-15T08:36:34Z</time>
      </trkpt>
      <trkpt lat="46.70317" lon="5.64372">
        <ele>315.60000610352</ele>
        <time>2022-09-15T08:37:41Z</time>
      </trkpt>
      <trkpt lat="46.70303" lon="5.64366">
        <ele>312.60000610352</ele>
        <time>2022-09-15T08:38:00Z</time>
      </trkpt>
      <trkpt lat="46.70294" lon="5.64359">
        <ele>309.39999389648</ele>
        <time>2022-09-15T08:38:13Z</time>
      </trkpt>
      <trkpt lat="46.70283" lon="5.64357">
        <ele>309.20001220703</ele>
        <time>2022-09-15T08:38:23Z</time>
      </trkpt>
      <trkpt lat="46.70277" lon="5.64359">
        <ele>309</ele>
        <time>2022-09-15T08:38:29Z</time>
      </trkpt>
      <trkpt lat="46.70275" lon="5.64358">
        <ele>308.79998779297</ele>
        <time>2022-09-15T08:38:31Z</time>
      </trkpt>
      <trkpt lat="46.70266" lon="5.64361">
        <ele>307.60000610352</ele>
        <time>2022-09-15T08:38:42Z</time>
      </trkpt>
      <trkpt lat="46.70254" lon="5.64359">
        <ele>304.60000610352</ele>
        <time>2022-09-15T08:38:57Z</time>
      </trkpt>
      <trkpt lat="46.70253" lon="5.64359">
        <ele>303.60000610352</ele>
        <time>2022-09-15T08:39:01Z</time>
      </trkpt>
      <trkpt lat="46.70251" lon="5.64356">
        <ele>300.60000610352</ele>
        <time>2022-09-15T08:39:14Z</time>
      </trkpt>
      <trkpt lat="46.70239" lon="5.64351">
        <ele>297</ele>
        <time>2022-09-15T08:39:28Z</time>
      </trkpt>
      <trkpt lat="46.70234" lon="5.64353">
        <ele>294.39999389648</ele>
        <time>2022-09-15T08:39:46Z</time>
      </trkpt>
      <trkpt lat="46.70228" lon="5.64358">
        <ele>292</ele>
        <time>2022-09-15T08:39:57Z</time>
      </trkpt>
      <trkpt lat="46.70223" lon="5.64356">
        <ele>289.60000610352</ele>
        <time>2022-09-15T08:40:07Z</time>
      </trkpt>
      <trkpt lat="46.70211" lon="5.64348">
        <ele>288</ele>
        <time>2022-09-15T08:40:20Z</time>
      </trkpt>
      <trkpt lat="46.70202" lon="5.64344">
        <ele>288.20001220703</ele>
        <time>2022-09-15T08:40:29Z</time>
      </trkpt>
      <trkpt lat="46.70191" lon="5.64339">
        <ele>288.20001220703</ele>
        <time>2022-09-15T08:40:39Z</time>
      </trkpt>
      <trkpt lat="46.70182" lon="5.64333">
        <ele>288.20001220703</ele>
        <time>2022-09-15T08:40:48Z</time>
      </trkpt>
      <trkpt lat="46.70171" lon="5.64323">
        <ele>287.79998779297</ele>
        <time>2022-09-15T08:40:57Z</time>
      </trkpt>
      <trkpt lat="46.70166" lon="5.64317">
        <ele>287.60000610352</ele>
        <time>2022-09-15T08:41:01Z</time>
      </trkpt>
      <trkpt lat="46.7016" lon="5.64314">
        <ele>287.60000610352</ele>
        <time>2022-09-15T08:41:05Z</time>
      </trkpt>
      <trkpt lat="46.70153" lon="5.64307">
        <ele>287.60000610352</ele>
        <time>2022-09-15T08:41:12Z</time>
      </trkpt>
      <trkpt lat="46.7015" lon="5.64299">
        <ele>287.60000610352</ele>
        <time>2022-09-15T08:41:20Z</time>
      </trkpt>
      <trkpt lat="46.70145" lon="5.64294">
        <ele>287.20001220703</ele>
        <time>2022-09-15T08:41:27Z</time>
      </trkpt>
      <trkpt lat="46.70138" lon="5.64287">
        <ele>286.60000610352</ele>
        <time>2022-09-15T08:41:37Z</time>
      </trkpt>
      <trkpt lat="46.70136" lon="5.64284">
        <ele>286.39999389648</ele>
        <time>2022-09-15T08:41:41Z</time>
      </trkpt>
      <trkpt lat="46.70117" lon="5.64279">
        <ele>286</ele>
        <time>2022-09-15T08:41:54Z</time>
      </trkpt>
      <trkpt lat="46.70117" lon="5.64275">
        <ele>286</ele>
        <time>2022-09-15T08:41:56Z</time>
      </trkpt>
      <trkpt lat="46.70114" lon="5.64269">
        <ele>286</ele>
        <time>2022-09-15T08:42:03Z</time>
      </trkpt>
      <trkpt lat="46.70108" lon="5.64259">
        <ele>285.60000610352</ele>
        <time>2022-09-15T08:42:14Z</time>
      </trkpt>
      <trkpt lat="46.70106" lon="5.64258">
        <ele>285.60000610352</ele>
        <time>2022-09-15T08:42:17Z</time>
      </trkpt>
      <trkpt lat="46.70098" lon="5.64251">
        <ele>285.79998779297</ele>
        <time>2022-09-15T08:42:27Z</time>
      </trkpt>
      <trkpt lat="46.70089" lon="5.64247">
        <ele>285.79998779297</ele>
        <time>2022-09-15T08:42:36Z</time>
      </trkpt>
      <trkpt lat="46.70082" lon="5.64242">
        <ele>285.79998779297</ele>
        <time>2022-09-15T08:42:42Z</time>
      </trkpt>
      <trkpt lat="46.7008" lon="5.6424">
        <ele>285.79998779297</ele>
        <time>2022-09-15T08:42:45Z</time>
      </trkpt>
      <trkpt lat="46.70075" lon="5.64232">
        <ele>285.79998779297</ele>
        <time>2022-09-15T08:42:58Z</time>
      </trkpt>
      <trkpt lat="46.70068" lon="5.64225">
        <ele>285.20001220703</ele>
        <time>2022-09-15T08:43:07Z</time>
      </trkpt>
      <trkpt lat="46.70061" lon="5.64221">
        <ele>284.79998779297</ele>
        <time>2022-09-15T08:43:16Z</time>
      </trkpt>
      <trkpt lat="46.70057" lon="5.64222">
        <ele>284.39999389648</ele>
        <time>2022-09-15T08:43:22Z</time>
      </trkpt>
      <trkpt lat="46.70042" lon="5.64218">
        <ele>284.60000610352</ele>
        <time>2022-09-15T08:43:37Z</time>
      </trkpt>
      <trkpt lat="46.70031" lon="5.64215">
        <ele>285</ele>
        <time>2022-09-15T08:43:47Z</time>
      </trkpt>
      <trkpt lat="46.70029" lon="5.64216">
        <ele>285</ele>
        <time>2022-09-15T08:43:48Z</time>
      </trkpt>
      <trkpt lat="46.70022" lon="5.64218">
        <ele>285.60000610352</ele>
        <time>2022-09-15T08:43:57Z</time>
      </trkpt>
      <trkpt lat="46.70019" lon="5.64215">
        <ele>285.60000610352</ele>
        <time>2022-09-15T08:44:08Z</time>
      </trkpt>
      <trkpt lat="46.70017" lon="5.64215">
        <ele>285.60000610352</ele>
        <time>2022-09-15T08:44:10Z</time>
      </trkpt>
      <trkpt lat="46.70015" lon="5.64214">
        <ele>285.39999389648</ele>
        <time>2022-09-15T08:44:13Z</time>
      </trkpt>
      <trkpt lat="46.70008" lon="5.64211">
        <ele>285.39999389648</ele>
        <time>2022-09-15T08:44:20Z</time>
      </trkpt>
      <trkpt lat="46.69999" lon="5.64209">
        <ele>285.60000610352</ele>
        <time>2022-09-15T08:44:31Z</time>
      </trkpt>
      <trkpt lat="46.69996" lon="5.64212">
        <ele>286.20001220703</ele>
        <time>2022-09-15T08:45:06Z</time>
      </trkpt>
      <trkpt lat="46.69993" lon="5.64214">
        <ele>286.39999389648</ele>
        <time>2022-09-15T08:45:19Z</time>
      </trkpt>
      <trkpt lat="46.69993" lon="5.64215">
        <ele>286.60000610352</ele>
        <time>2022-09-15T08:45:29Z</time>
      </trkpt>
      <trkpt lat="46.70006" lon="5.64213">
        <ele>286.39999389648</ele>
        <time>2022-09-15T08:45:42Z</time>
      </trkpt>
      <trkpt lat="46.70015" lon="5.64216">
        <ele>286.39999389648</ele>
        <time>2022-09-15T08:45:51Z</time>
      </trkpt>
      <trkpt lat="46.70018" lon="5.64217">
        <ele>286.39999389648</ele>
        <time>2022-09-15T08:45:53Z</time>
      </trkpt>
      <trkpt lat="46.70026" lon="5.64223">
        <ele>286.79998779297</ele>
        <time>2022-09-15T08:45:59Z</time>
      </trkpt>
      <trkpt lat="46.70029" lon="5.64224">
        <ele>287</ele>
        <time>2022-09-15T08:46:01Z</time>
      </trkpt>
      <trkpt lat="46.70033" lon="5.64224">
        <ele>287</ele>
        <time>2022-09-15T08:46:04Z</time>
      </trkpt>
      <trkpt lat="46.70037" lon="5.64228">
        <ele>286.79998779297</ele>
        <time>2022-09-15T08:46:11Z</time>
      </trkpt>
      <trkpt lat="46.70045" lon="5.64232">
        <ele>286.39999389648</ele>
        <time>2022-09-15T08:46:18Z</time>
      </trkpt>
      <trkpt lat="46.70051" lon="5.64238">
        <ele>286.39999389648</ele>
        <time>2022-09-15T08:46:26Z</time>
      </trkpt>
      <trkpt lat="46.70068" lon="5.64244">
        <ele>287</ele>
        <time>2022-09-15T08:46:35Z</time>
      </trkpt>
      <trkpt lat="46.70079" lon="5.64248">
        <ele>287.60000610352</ele>
        <time>2022-09-15T08:46:42Z</time>
      </trkpt>
      <trkpt lat="46.7008" lon="5.64249">
        <ele>287.60000610352</ele>
        <time>2022-09-15T08:46:43Z</time>
      </trkpt>
      <trkpt lat="46.70083" lon="5.64253">
        <ele>288</ele>
        <time>2022-09-15T08:46:47Z</time>
      </trkpt>
      <trkpt lat="46.70087" lon="5.64259">
        <ele>288</ele>
        <time>2022-09-15T08:46:50Z</time>
      </trkpt>
      <trkpt lat="46.70091" lon="5.64261">
        <ele>288</ele>
        <time>2022-09-15T08:46:53Z</time>
      </trkpt>
      <trkpt lat="46.701" lon="5.6427">
        <ele>288.20001220703</ele>
        <time>2022-09-15T08:47:03Z</time>
      </trkpt>
      <trkpt lat="46.70101" lon="5.64272">
        <ele>288.20001220703</ele>
        <time>2022-09-15T08:47:04Z</time>
      </trkpt>
      <trkpt lat="46.70112" lon="5.64288">
        <ele>288.20001220703</ele>
        <time>2022-09-15T08:47:17Z</time>
      </trkpt>
      <trkpt lat="46.70128" lon="5.64291">
        <ele>288.20001220703</ele>
        <time>2022-09-15T08:47:30Z</time>
      </trkpt>
      <trkpt lat="46.70131" lon="5.64295">
        <ele>288.39999389648</ele>
        <time>2022-09-15T08:47:33Z</time>
      </trkpt>
      <trkpt lat="46.70141" lon="5.64312">
        <ele>288.60000610352</ele>
        <time>2022-09-15T08:47:44Z</time>
      </trkpt>
      <trkpt lat="46.70149" lon="5.64313">
        <ele>288.79998779297</ele>
        <time>2022-09-15T08:47:49Z</time>
      </trkpt>
      <trkpt lat="46.70158" lon="5.64323">
        <ele>289</ele>
        <time>2022-09-15T08:47:57Z</time>
      </trkpt>
      <trkpt lat="46.70162" lon="5.64329">
        <ele>289</ele>
        <time>2022-09-15T08:48:05Z</time>
      </trkpt>
      <trkpt lat="46.7017" lon="5.64342">
        <ele>289</ele>
        <time>2022-09-15T08:48:10Z</time>
      </trkpt>
      <trkpt lat="46.70178" lon="5.64347">
        <ele>289.20001220703</ele>
        <time>2022-09-15T08:48:19Z</time>
      </trkpt>
      <trkpt lat="46.70176" lon="5.6435">
        <ele>289.20001220703</ele>
        <time>2022-09-15T08:48:33Z</time>
      </trkpt>
      <trkpt lat="46.70173" lon="5.64345">
        <ele>289.39999389648</ele>
        <time>2022-09-15T08:48:38Z</time>
      </trkpt>
      <trkpt lat="46.70171" lon="5.64344">
        <ele>290</ele>
        <time>2022-09-15T08:48:51Z</time>
      </trkpt>
      <trkpt lat="46.7017" lon="5.64344">
        <ele>290</ele>
        <time>2022-09-15T08:48:52Z</time>
      </trkpt>
      <trkpt lat="46.70167" lon="5.64343">
        <ele>290.20001220703</ele>
        <time>2022-09-15T08:48:59Z</time>
      </trkpt>
      <trkpt lat="46.70165" lon="5.64342">
        <ele>290.20001220703</ele>
        <time>2022-09-15T08:49:01Z</time>
      </trkpt>
      <trkpt lat="46.70159" lon="5.64337">
        <ele>290.39999389648</ele>
        <time>2022-09-15T08:49:11Z</time>
      </trkpt>
      <trkpt lat="46.7016" lon="5.64332">
        <ele>290.60000610352</ele>
        <time>2022-09-15T08:49:13Z</time>
      </trkpt>
      <trkpt lat="46.70151" lon="5.64326">
        <ele>291</ele>
        <time>2022-09-15T08:49:19Z</time>
      </trkpt>
      <trkpt lat="46.70148" lon="5.64324">
        <ele>291.20001220703</ele>
        <time>2022-09-15T08:49:23Z</time>
      </trkpt>
      <trkpt lat="46.70142" lon="5.64319">
        <ele>291.60000610352</ele>
        <time>2022-09-15T08:49:36Z</time>
      </trkpt>
      <trkpt lat="46.7014" lon="5.64315">
        <ele>291.60000610352</ele>
        <time>2022-09-15T08:49:38Z</time>
      </trkpt>
      <trkpt lat="46.70134" lon="5.64309">
        <ele>291.79998779297</ele>
        <time>2022-09-15T08:49:45Z</time>
      </trkpt>
      <trkpt lat="46.7013" lon="5.64308">
        <ele>291.79998779297</ele>
        <time>2022-09-15T08:49:48Z</time>
      </trkpt>
      <trkpt lat="46.70119" lon="5.64299">
        <ele>291.79998779297</ele>
        <time>2022-09-15T08:49:54Z</time>
      </trkpt>
      <trkpt lat="46.70118" lon="5.64296">
        <ele>292</ele>
        <time>2022-09-15T08:49:58Z</time>
      </trkpt>
      <trkpt lat="46.70111" lon="5.64289">
        <ele>292.20001220703</ele>
        <time>2022-09-15T08:50:08Z</time>
      </trkpt>
      <trkpt lat="46.70103" lon="5.64277">
        <ele>292.39999389648</ele>
        <time>2022-09-15T08:50:19Z</time>
      </trkpt>
      <trkpt lat="46.70096" lon="5.64267">
        <ele>293.20001220703</ele>
        <time>2022-09-15T08:50:30Z</time>
      </trkpt>
      <trkpt lat="46.70094" lon="5.64266">
        <ele>293.39999389648</ele>
        <time>2022-09-15T08:50:33Z</time>
      </trkpt>
      <trkpt lat="46.70085" lon="5.64261">
        <ele>293.39999389648</ele>
        <time>2022-09-15T08:50:42Z</time>
      </trkpt>
      <trkpt lat="46.70084" lon="5.6426">
        <ele>293.39999389648</ele>
        <time>2022-09-15T08:50:43Z</time>
      </trkpt>
      <trkpt lat="46.70079" lon="5.64255">
        <ele>293.60000610352</ele>
        <time>2022-09-15T08:50:49Z</time>
      </trkpt>
      <trkpt lat="46.70069" lon="5.6425">
        <ele>294</ele>
        <time>2022-09-15T08:50:58Z</time>
      </trkpt>
      <trkpt lat="46.70066" lon="5.64247">
        <ele>294.20001220703</ele>
        <time>2022-09-15T08:51:04Z</time>
      </trkpt>
      <trkpt lat="46.70063" lon="5.6424">
        <ele>294</ele>
        <time>2022-09-15T08:51:13Z</time>
      </trkpt>
      <trkpt lat="46.70063" lon="5.64238">
        <ele>294</ele>
        <time>2022-09-15T08:51:15Z</time>
      </trkpt>
      <trkpt lat="46.70059" lon="5.64235">
        <ele>293.79998779297</ele>
        <time>2022-09-15T08:51:20Z</time>
      </trkpt>
      <trkpt lat="46.70049" lon="5.64231">
        <ele>293.60000610352</ele>
        <time>2022-09-15T08:51:31Z</time>
      </trkpt>
      <trkpt lat="46.70038" lon="5.64227">
        <ele>294.60000610352</ele>
        <time>2022-09-15T08:51:44Z</time>
      </trkpt>
      <trkpt lat="46.70032" lon="5.64225">
        <ele>294.60000610352</ele>
        <time>2022-09-15T08:51:49Z</time>
      </trkpt>
      <trkpt lat="46.70019" lon="5.64223">
        <ele>295.39999389648</ele>
        <time>2022-09-15T08:52:00Z</time>
      </trkpt>
      <trkpt lat="46.70011" lon="5.6422">
        <ele>295.39999389648</ele>
        <time>2022-09-15T08:52:11Z</time>
      </trkpt>
      <trkpt lat="46.70006" lon="5.64218">
        <ele>295.39999389648</ele>
        <time>2022-09-15T08:52:17Z</time>
      </trkpt>
      <trkpt lat="46.70002" lon="5.64217">
        <ele>295.39999389648</ele>
        <time>2022-09-15T08:52:22Z</time>
      </trkpt>
      <trkpt lat="46.69995" lon="5.64211">
        <ele>296.60000610352</ele>
        <time>2022-09-15T08:52:45Z</time>
      </trkpt>
      <trkpt lat="46.69987" lon="5.64207">
        <ele>297.39999389648</ele>
        <time>2022-09-15T08:53:16Z</time>
      </trkpt>
      <trkpt lat="46.69981" lon="5.64206">
        <ele>298.39999389648</ele>
        <time>2022-09-15T08:53:54Z</time>
      </trkpt>
      <trkpt lat="46.69984" lon="5.64206">
        <ele>298.79998779297</ele>
        <time>2022-09-15T08:54:11Z</time>
      </trkpt>
      <trkpt lat="46.69985" lon="5.64209">
        <ele>299.20001220703</ele>
        <time>2022-09-15T08:54:38Z</time>
      </trkpt>
      <trkpt lat="46.69991" lon="5.6421">
        <ele>299.60000610352</ele>
        <time>2022-09-15T08:54:57Z</time>
      </trkpt>
      <trkpt lat="46.6999" lon="5.64209">
        <ele>300.79998779297</ele>
        <time>2022-09-15T08:55:36Z</time>
      </trkpt>
      <trkpt lat="46.69989" lon="5.64204">
        <ele>300.79998779297</ele>
        <time>2022-09-15T08:56:00Z</time>
      </trkpt>
      <trkpt lat="46.69972" lon="5.64208">
        <ele>302.60000610352</ele>
        <time>2022-09-15T08:56:28Z</time>
      </trkpt>
      <trkpt lat="46.69949" lon="5.64199">
        <ele>302.60000610352</ele>
        <time>2022-09-15T08:56:47Z</time>
      </trkpt>
      <trkpt lat="46.69943" lon="5.64184">
        <ele>302.39999389648</ele>
        <time>2022-09-15T08:56:57Z</time>
      </trkpt>
      <trkpt lat="46.69899" lon="5.64173">
        <ele>302.20001220703</ele>
        <time>2022-09-15T08:57:46Z</time>
      </trkpt>
      <trkpt lat="46.69894" lon="5.64174">
        <ele>302.20001220703</ele>
        <time>2022-09-15T08:57:50Z</time>
      </trkpt>
      <trkpt lat="46.69811" lon="5.64158">
        <ele>303.39999389648</ele>
        <time>2022-09-15T08:59:22Z</time>
      </trkpt>
      <trkpt lat="46.69802" lon="5.64157">
        <ele>303.20001220703</ele>
        <time>2022-09-15T08:59:33Z</time>
      </trkpt>
      <trkpt lat="46.69686" lon="5.64171">
        <ele>303.60000610352</ele>
        <time>2022-09-15T09:01:43Z</time>
      </trkpt>
      <trkpt lat="46.69682" lon="5.64167">
        <ele>303.60000610352</ele>
        <time>2022-09-15T09:01:50Z</time>
      </trkpt>
      <trkpt lat="46.69671" lon="5.64155">
        <ele>304.39999389648</ele>
        <time>2022-09-15T09:02:02Z</time>
      </trkpt>
      <trkpt lat="46.69653" lon="5.64157">
        <ele>304</ele>
        <time>2022-09-15T09:02:23Z</time>
      </trkpt>
      <trkpt lat="46.69607" lon="5.64156">
        <ele>305</ele>
        <time>2022-09-15T09:02:59Z</time>
      </trkpt>
      <trkpt lat="46.69598" lon="5.64163">
        <ele>305.79998779297</ele>
        <time>2022-09-15T09:03:08Z</time>
      </trkpt>
      <trkpt lat="46.69595" lon="5.64131">
        <ele>305.79998779297</ele>
        <time>2022-09-15T09:03:23Z</time>
      </trkpt>
      <trkpt lat="46.69589" lon="5.64114">
        <ele>306.20001220703</ele>
        <time>2022-09-15T09:03:38Z</time>
      </trkpt>
      <trkpt lat="46.69577" lon="5.64068">
        <ele>306.60000610352</ele>
        <time>2022-09-15T09:04:17Z</time>
      </trkpt>
      <trkpt lat="46.69566" lon="5.64051">
        <ele>305.60000610352</ele>
        <time>2022-09-15T09:04:37Z</time>
      </trkpt>
      <trkpt lat="46.69559" lon="5.64046">
        <ele>305.39999389648</ele>
        <time>2022-09-15T09:04:46Z</time>
      </trkpt>
      <trkpt lat="46.69539" lon="5.64041">
        <ele>304.79998779297</ele>
        <time>2022-09-15T09:05:10Z</time>
      </trkpt>
      <trkpt lat="46.69535" lon="5.64033">
        <ele>304.60000610352</ele>
        <time>2022-09-15T09:05:17Z</time>
      </trkpt>
      <trkpt lat="46.6953" lon="5.64027">
        <ele>304.60000610352</ele>
        <time>2022-09-15T09:05:27Z</time>
      </trkpt>
      <trkpt lat="46.69526" lon="5.64016">
        <ele>304.79998779297</ele>
        <time>2022-09-15T09:05:40Z</time>
      </trkpt>
      <trkpt lat="46.69514" lon="5.64016">
        <ele>304.79998779297</ele>
        <time>2022-09-15T09:05:45Z</time>
      </trkpt>
      <trkpt lat="46.69503" lon="5.64035">
        <ele>302.39999389648</ele>
        <time>2022-09-15T09:06:12Z</time>
      </trkpt>
      <trkpt lat="46.69502" lon="5.6404">
        <ele>301.20001220703</ele>
        <time>2022-09-15T09:06:30Z</time>
      </trkpt>
      <trkpt lat="46.69507" lon="5.6404">
        <ele>300.39999389648</ele>
        <time>2022-09-15T09:06:42Z</time>
      </trkpt>
      <trkpt lat="46.69503" lon="5.64045">
        <ele>298.60000610352</ele>
        <time>2022-09-15T09:07:21Z</time>
      </trkpt>
      <trkpt lat="46.69504" lon="5.6404">
        <ele>298</ele>
        <time>2022-09-15T09:07:33Z</time>
      </trkpt>
      <trkpt lat="46.69508" lon="5.64031">
        <ele>297.39999389648</ele>
        <time>2022-09-15T09:07:57Z</time>
      </trkpt>
      <trkpt lat="46.69497" lon="5.64027">
        <ele>297.79998779297</ele>
        <time>2022-09-15T09:08:11Z</time>
      </trkpt>
      <trkpt lat="46.69487" lon="5.64015">
        <ele>298</ele>
        <time>2022-09-15T09:08:26Z</time>
      </trkpt>
      <trkpt lat="46.69478" lon="5.64006">
        <ele>297.79998779297</ele>
        <time>2022-09-15T09:08:42Z</time>
      </trkpt>
      <trkpt lat="46.69469" lon="5.63997">
        <ele>297.20001220703</ele>
        <time>2022-09-15T09:08:54Z</time>
      </trkpt>
      <trkpt lat="46.69459" lon="5.63992">
        <ele>297</ele>
        <time>2022-09-15T09:09:08Z</time>
      </trkpt>
      <trkpt lat="46.69446" lon="5.63976">
        <ele>296.39999389648</ele>
        <time>2022-09-15T09:09:27Z</time>
      </trkpt>
      <trkpt lat="46.6944" lon="5.63967">
        <ele>297.20001220703</ele>
        <time>2022-09-15T09:09:34Z</time>
      </trkpt>
      <trkpt lat="46.69426" lon="5.63956">
        <ele>298.60000610352</ele>
        <time>2022-09-15T09:09:48Z</time>
      </trkpt>
      <trkpt lat="46.69419" lon="5.63951">
        <ele>299.20001220703</ele>
        <time>2022-09-15T09:09:54Z</time>
      </trkpt>
      <trkpt lat="46.69403" lon="5.6395">
        <ele>299.79998779297</ele>
        <time>2022-09-15T09:10:06Z</time>
      </trkpt>
      <trkpt lat="46.69401" lon="5.63951">
        <ele>299.79998779297</ele>
        <time>2022-09-15T09:10:07Z</time>
      </trkpt>
      <trkpt lat="46.69388" lon="5.63952">
        <ele>299.39999389648</ele>
        <time>2022-09-15T09:10:18Z</time>
      </trkpt>
      <trkpt lat="46.69381" lon="5.6396">
        <ele>299.20001220703</ele>
        <time>2022-09-15T09:10:26Z</time>
      </trkpt>
      <trkpt lat="46.69378" lon="5.63965">
        <ele>299.20001220703</ele>
        <time>2022-09-15T09:10:29Z</time>
      </trkpt>
      <trkpt lat="46.69364" lon="5.6397">
        <ele>298.60000610352</ele>
        <time>2022-09-15T09:10:38Z</time>
      </trkpt>
      <trkpt lat="46.69361" lon="5.63968">
        <ele>298.79998779297</ele>
        <time>2022-09-15T09:10:41Z</time>
      </trkpt>
      <trkpt lat="46.69355" lon="5.63967">
        <ele>299</ele>
        <time>2022-09-15T09:10:46Z</time>
      </trkpt>
      <trkpt lat="46.6935" lon="5.63965">
        <ele>299.39999389648</ele>
        <time>2022-09-15T09:10:51Z</time>
      </trkpt>
      <trkpt lat="46.69345" lon="5.6396">
        <ele>300.20001220703</ele>
        <time>2022-09-15T09:11:01Z</time>
      </trkpt>
      <trkpt lat="46.6934" lon="5.63954">
        <ele>302.39999389648</ele>
        <time>2022-09-15T09:11:16Z</time>
      </trkpt>
      <trkpt lat="46.69337" lon="5.63951">
        <ele>304.79998779297</ele>
        <time>2022-09-15T09:11:29Z</time>
      </trkpt>
      <trkpt lat="46.69335" lon="5.63946">
        <ele>306.79998779297</ele>
        <time>2022-09-15T09:11:42Z</time>
      </trkpt>
      <trkpt lat="46.69327" lon="5.63947">
        <ele>308.79998779297</ele>
        <time>2022-09-15T09:11:57Z</time>
      </trkpt>
      <trkpt lat="46.6932" lon="5.63947">
        <ele>309.60000610352</ele>
        <time>2022-09-15T09:12:12Z</time>
      </trkpt>
      <trkpt lat="46.69305" lon="5.63949">
        <ele>309.60000610352</ele>
        <time>2022-09-15T09:12:29Z</time>
      </trkpt>
      <trkpt lat="46.69302" lon="5.63953">
        <ele>309.39999389648</ele>
        <time>2022-09-15T09:12:33Z</time>
      </trkpt>
      <trkpt lat="46.69295" lon="5.6395">
        <ele>309</ele>
        <time>2022-09-15T09:12:45Z</time>
      </trkpt>
      <trkpt lat="46.69283" lon="5.63944">
        <ele>310.20001220703</ele>
        <time>2022-09-15T09:13:01Z</time>
      </trkpt>
      <trkpt lat="46.69271" lon="5.63939">
        <ele>312.60000610352</ele>
        <time>2022-09-15T09:13:17Z</time>
      </trkpt>
      <trkpt lat="46.6926" lon="5.63941">
        <ele>314.79998779297</ele>
        <time>2022-09-15T09:13:35Z</time>
      </trkpt>
      <trkpt lat="46.69251" lon="5.63931">
        <ele>316.39999389648</ele>
        <time>2022-09-15T09:13:49Z</time>
      </trkpt>
      <trkpt lat="46.69238" lon="5.63925">
        <ele>317.60000610352</ele>
        <time>2022-09-15T09:14:05Z</time>
      </trkpt>
      <trkpt lat="46.69234" lon="5.63931">
        <ele>318.60000610352</ele>
        <time>2022-09-15T09:14:15Z</time>
      </trkpt>
      <trkpt lat="46.69241" lon="5.6394">
        <ele>319.60000610352</ele>
        <time>2022-09-15T09:14:39Z</time>
      </trkpt>
      <trkpt lat="46.69239" lon="5.63941">
        <ele>320</ele>
        <time>2022-09-15T09:14:52Z</time>
      </trkpt>
      <trkpt lat="46.69228" lon="5.63929">
        <ele>321.20001220703</ele>
        <time>2022-09-15T09:15:07Z</time>
      </trkpt>
      <trkpt lat="46.69217" lon="5.63926">
        <ele>322.20001220703</ele>
        <time>2022-09-15T09:15:23Z</time>
      </trkpt>
      <trkpt lat="46.69206" lon="5.63919">
        <ele>323.20001220703</ele>
        <time>2022-09-15T09:15:37Z</time>
      </trkpt>
      <trkpt lat="46.69203" lon="5.63916">
        <ele>324</ele>
        <time>2022-09-15T09:15:43Z</time>
      </trkpt>
      <trkpt lat="46.6919" lon="5.63908">
        <ele>325.79998779297</ele>
        <time>2022-09-15T09:16:02Z</time>
      </trkpt>
      <trkpt lat="46.69181" lon="5.63906">
        <ele>327.20001220703</ele>
        <time>2022-09-15T09:16:14Z</time>
      </trkpt>
      <trkpt lat="46.69172" lon="5.63905">
        <ele>329</ele>
        <time>2022-09-15T09:16:31Z</time>
      </trkpt>
      <trkpt lat="46.6917" lon="5.63905">
        <ele>329.60000610352</ele>
        <time>2022-09-15T09:16:52Z</time>
      </trkpt>
      <trkpt lat="46.69169" lon="5.6391">
        <ele>330.39999389648</ele>
        <time>2022-09-15T09:17:27Z</time>
      </trkpt>
      <trkpt lat="46.69171" lon="5.63903">
        <ele>331.20001220703</ele>
        <time>2022-09-15T09:17:50Z</time>
      </trkpt>
      <trkpt lat="46.69172" lon="5.63893">
        <ele>332</ele>
        <time>2022-09-15T09:18:07Z</time>
      </trkpt>
      <trkpt lat="46.69171" lon="5.63902">
        <ele>333.20001220703</ele>
        <time>2022-09-15T09:18:31Z</time>
      </trkpt>
      <trkpt lat="46.69175" lon="5.6389">
        <ele>333.79998779297</ele>
        <time>2022-09-15T09:18:49Z</time>
      </trkpt>
      <trkpt lat="46.69164" lon="5.63882">
        <ele>335.60000610352</ele>
        <time>2022-09-15T09:19:09Z</time>
      </trkpt>
      <trkpt lat="46.69157" lon="5.63877">
        <ele>337</ele>
        <time>2022-09-15T09:19:28Z</time>
      </trkpt>
      <trkpt lat="46.69149" lon="5.63867">
        <ele>340</ele>
        <time>2022-09-15T09:19:49Z</time>
      </trkpt>
      <trkpt lat="46.69142" lon="5.63856">
        <ele>342.20001220703</ele>
        <time>2022-09-15T09:20:06Z</time>
      </trkpt>
      <trkpt lat="46.69135" lon="5.63851">
        <ele>345</ele>
        <time>2022-09-15T09:20:24Z</time>
      </trkpt>
      <trkpt lat="46.69127" lon="5.63849">
        <ele>348.20001220703</ele>
        <time>2022-09-15T09:20:48Z</time>
      </trkpt>
      <trkpt lat="46.6912" lon="5.63851">
        <ele>350.39999389648</ele>
        <time>2022-09-15T09:21:03Z</time>
      </trkpt>
      <trkpt lat="46.69118" lon="5.63858">
        <ele>351.39999389648</ele>
        <time>2022-09-15T09:21:17Z</time>
      </trkpt>
      <trkpt lat="46.69108" lon="5.6386">
        <ele>351.60000610352</ele>
        <time>2022-09-15T09:21:28Z</time>
      </trkpt>
      <trkpt lat="46.69097" lon="5.63869">
        <ele>352.60000610352</ele>
        <time>2022-09-15T09:21:42Z</time>
      </trkpt>
      <trkpt lat="46.69091" lon="5.6387">
        <ele>353.79998779297</ele>
        <time>2022-09-15T09:21:55Z</time>
      </trkpt>
      <trkpt lat="46.69086" lon="5.63876">
        <ele>354.39999389648</ele>
        <time>2022-09-15T09:22:07Z</time>
      </trkpt>
      <trkpt lat="46.69085" lon="5.63872">
        <ele>355.60000610352</ele>
        <time>2022-09-15T09:22:38Z</time>
      </trkpt>
      <trkpt lat="46.69085" lon="5.6387">
        <ele>358.20001220703</ele>
        <time>2022-09-15T09:22:55Z</time>
      </trkpt>
      <trkpt lat="46.69081" lon="5.6387">
        <ele>361.39999389648</ele>
        <time>2022-09-15T09:23:11Z</time>
      </trkpt>
      <trkpt lat="46.69075" lon="5.63865">
        <ele>364.79998779297</ele>
        <time>2022-09-15T09:23:31Z</time>
      </trkpt>
      <trkpt lat="46.69068" lon="5.63863">
        <ele>366.79998779297</ele>
        <time>2022-09-15T09:23:48Z</time>
      </trkpt>
      <trkpt lat="46.69057" lon="5.63863">
        <ele>369.20001220703</ele>
        <time>2022-09-15T09:24:07Z</time>
      </trkpt>
      <trkpt lat="46.69049" lon="5.63866">
        <ele>372</ele>
        <time>2022-09-15T09:24:24Z</time>
      </trkpt>
      <trkpt lat="46.69051" lon="5.63861">
        <ele>375</ele>
        <time>2022-09-15T09:24:37Z</time>
      </trkpt>
      <trkpt lat="46.6904" lon="5.63857">
        <ele>378</ele>
        <time>2022-09-15T09:25:04Z</time>
      </trkpt>
      <trkpt lat="46.69035" lon="5.63851">
        <ele>380</ele>
        <time>2022-09-15T09:25:26Z</time>
      </trkpt>
      <trkpt lat="46.6903" lon="5.63847">
        <ele>380.79998779297</ele>
        <time>2022-09-15T09:25:44Z</time>
      </trkpt>
      <trkpt lat="46.69032" lon="5.63854">
        <ele>381.20001220703</ele>
        <time>2022-09-15T09:25:56Z</time>
      </trkpt>
      <trkpt lat="46.69027" lon="5.63861">
        <ele>381.60000610352</ele>
        <time>2022-09-15T09:26:29Z</time>
      </trkpt>
      <trkpt lat="46.69028" lon="5.63854">
        <ele>381.79998779297</ele>
        <time>2022-09-15T09:26:48Z</time>
      </trkpt>
      <trkpt lat="46.69032" lon="5.63841">
        <ele>381.79998779297</ele>
        <time>2022-09-15T09:27:05Z</time>
      </trkpt>
      <trkpt lat="46.69022" lon="5.6384">
        <ele>383.20001220703</ele>
        <time>2022-09-15T09:27:21Z</time>
      </trkpt>
      <trkpt lat="46.69003" lon="5.63827">
        <ele>385.79998779297</ele>
        <time>2022-09-15T09:27:38Z</time>
      </trkpt>
      <trkpt lat="46.68999" lon="5.63812">
        <ele>387.60000610352</ele>
        <time>2022-09-15T09:27:58Z</time>
      </trkpt>
      <trkpt lat="46.6899" lon="5.63803">
        <ele>388.39999389648</ele>
        <time>2022-09-15T09:28:20Z</time>
      </trkpt>
      <trkpt lat="46.68984" lon="5.63798">
        <ele>388.60000610352</ele>
        <time>2022-09-15T09:28:25Z</time>
      </trkpt>
      <trkpt lat="46.68972" lon="5.6377">
        <ele>388.60000610352</ele>
        <time>2022-09-15T09:28:43Z</time>
      </trkpt>
      <trkpt lat="46.68967" lon="5.63754">
        <ele>389.79998779297</ele>
        <time>2022-09-15T09:29:00Z</time>
      </trkpt>
      <trkpt lat="46.68976" lon="5.63743">
        <ele>390.20001220703</ele>
        <time>2022-09-15T09:29:17Z</time>
      </trkpt>
      <trkpt lat="46.68974" lon="5.63755">
        <ele>390.20001220703</ele>
        <time>2022-09-15T09:29:29Z</time>
      </trkpt>
      <trkpt lat="46.68974" lon="5.63759">
        <ele>390.39999389648</ele>
        <time>2022-09-15T09:29:33Z</time>
      </trkpt>
      <trkpt lat="46.68974" lon="5.63772">
        <ele>390.20001220703</ele>
        <time>2022-09-15T09:29:47Z</time>
      </trkpt>
      <trkpt lat="46.68953" lon="5.6374">
        <ele>390.39999389648</ele>
        <time>2022-09-15T09:30:09Z</time>
      </trkpt>
      <trkpt lat="46.68936" lon="5.6373">
        <ele>390.60000610352</ele>
        <time>2022-09-15T09:30:24Z</time>
      </trkpt>
      <trkpt lat="46.68933" lon="5.6373">
        <ele>392.39999389648</ele>
        <time>2022-09-15T09:30:37Z</time>
      </trkpt>
      <trkpt lat="46.6892" lon="5.63731">
        <ele>394.79998779297</ele>
        <time>2022-09-15T09:30:55Z</time>
      </trkpt>
      <trkpt lat="46.68915" lon="5.63734">
        <ele>396.39999389648</ele>
        <time>2022-09-15T09:31:13Z</time>
      </trkpt>
      <trkpt lat="46.68911" lon="5.63744">
        <ele>398.20001220703</ele>
        <time>2022-09-15T09:31:28Z</time>
      </trkpt>
      <trkpt lat="46.68911" lon="5.63744">
        <ele>399</ele>
        <time>2022-09-15T09:31:37Z</time>
      </trkpt>
      <trkpt lat="46.68903" lon="5.63749">
        <ele>400.60000610352</ele>
        <time>2022-09-15T09:31:48Z</time>
      </trkpt>
      <trkpt lat="46.68897" lon="5.63751">
        <ele>402</ele>
        <time>2022-09-15T09:31:57Z</time>
      </trkpt>
      <trkpt lat="46.68894" lon="5.63752">
        <ele>403</ele>
        <time>2022-09-15T09:32:07Z</time>
      </trkpt>
      <trkpt lat="46.68889" lon="5.63746">
        <ele>405.60000610352</ele>
        <time>2022-09-15T09:32:28Z</time>
      </trkpt>
      <trkpt lat="46.68884" lon="5.63748">
        <ele>408.39999389648</ele>
        <time>2022-09-15T09:32:46Z</time>
      </trkpt>
      <trkpt lat="46.68876" lon="5.63757">
        <ele>409.79998779297</ele>
        <time>2022-09-15T09:32:57Z</time>
      </trkpt>
      <trkpt lat="46.68868" lon="5.63761">
        <ele>411.39999389648</ele>
        <time>2022-09-15T09:33:11Z</time>
      </trkpt>
      <trkpt lat="46.68852" lon="5.63774">
        <ele>413.60000610352</ele>
        <time>2022-09-15T09:33:29Z</time>
      </trkpt>
      <trkpt lat="46.68844" lon="5.63778">
        <ele>415.20001220703</ele>
        <time>2022-09-15T09:33:44Z</time>
      </trkpt>
      <trkpt lat="46.68841" lon="5.63785">
        <ele>416.79998779297</ele>
        <time>2022-09-15T09:33:57Z</time>
      </trkpt>
      <trkpt lat="46.68837" lon="5.63793">
        <ele>419.39999389648</ele>
        <time>2022-09-15T09:34:17Z</time>
      </trkpt>
      <trkpt lat="46.68834" lon="5.63791">
        <ele>421</ele>
        <time>2022-09-15T09:34:31Z</time>
      </trkpt>
      <trkpt lat="46.6883" lon="5.63791">
        <ele>422.20001220703</ele>
        <time>2022-09-15T09:34:39Z</time>
      </trkpt>
      <trkpt lat="46.68828" lon="5.63795">
        <ele>422.79998779297</ele>
        <time>2022-09-15T09:34:45Z</time>
      </trkpt>
      <trkpt lat="46.68821" lon="5.6381">
        <ele>424.20001220703</ele>
        <time>2022-09-15T09:35:00Z</time>
      </trkpt>
      <trkpt lat="46.68815" lon="5.63823">
        <ele>425.39999389648</ele>
        <time>2022-09-15T09:35:17Z</time>
      </trkpt>
      <trkpt lat="46.68815" lon="5.63847">
        <ele>425.79998779297</ele>
        <time>2022-09-15T09:35:36Z</time>
      </trkpt>
      <trkpt lat="46.68812" lon="5.63862">
        <ele>426.79998779297</ele>
        <time>2022-09-15T09:35:51Z</time>
      </trkpt>
      <trkpt lat="46.68812" lon="5.63877">
        <ele>428.20001220703</ele>
        <time>2022-09-15T09:36:02Z</time>
      </trkpt>
      <trkpt lat="46.6881" lon="5.6389">
        <ele>430</ele>
        <time>2022-09-15T09:36:18Z</time>
      </trkpt>
      <trkpt lat="46.68806" lon="5.63913">
        <ele>431.39999389648</ele>
        <time>2022-09-15T09:36:31Z</time>
      </trkpt>
      <trkpt lat="46.68808" lon="5.6392">
        <ele>431.60000610352</ele>
        <time>2022-09-15T09:36:36Z</time>
      </trkpt>
      <trkpt lat="46.68813" lon="5.63922">
        <ele>431.60000610352</ele>
        <time>2022-09-15T09:36:39Z</time>
      </trkpt>
      <trkpt lat="46.68825" lon="5.63932">
        <ele>432.20001220703</ele>
        <time>2022-09-15T09:36:53Z</time>
      </trkpt>
      <trkpt lat="46.68829" lon="5.63944">
        <ele>432.79998779297</ele>
        <time>2022-09-15T09:37:03Z</time>
      </trkpt>
      <trkpt lat="46.68832" lon="5.63951">
        <ele>432.79998779297</ele>
        <time>2022-09-15T09:37:12Z</time>
      </trkpt>
      <trkpt lat="46.68834" lon="5.63958">
        <ele>433</ele>
        <time>2022-09-15T09:37:18Z</time>
      </trkpt>
      <trkpt lat="46.68831" lon="5.6397">
        <ele>433.60000610352</ele>
        <time>2022-09-15T09:37:25Z</time>
      </trkpt>
      <trkpt lat="46.6885" lon="5.63979">
        <ele>436.79998779297</ele>
        <time>2022-09-15T09:37:49Z</time>
      </trkpt>
      <trkpt lat="46.68875" lon="5.63969">
        <ele>439.79998779297</ele>
        <time>2022-09-15T09:38:19Z</time>
      </trkpt>
      <trkpt lat="46.68872" lon="5.64029">
        <ele>442.79998779297</ele>
        <time>2022-09-15T09:39:03Z</time>
      </trkpt>
      <trkpt lat="46.6887" lon="5.64033">
        <ele>445.79998779297</ele>
        <time>2022-09-15T09:39:24Z</time>
      </trkpt>
      <trkpt lat="46.68861" lon="5.64035">
        <ele>449.20001220703</ele>
        <time>2022-09-15T09:39:43Z</time>
      </trkpt>
      <trkpt lat="46.68859" lon="5.64043">
        <ele>452.39999389648</ele>
        <time>2022-09-15T09:40:13Z</time>
      </trkpt>
      <trkpt lat="46.68859" lon="5.64041">
        <ele>455.39999389648</ele>
        <time>2022-09-15T09:40:40Z</time>
      </trkpt>
      <trkpt lat="46.68851" lon="5.64062">
        <ele>458.39999389648</ele>
        <time>2022-09-15T09:41:29Z</time>
      </trkpt>
      <trkpt lat="46.68844" lon="5.64055">
        <ele>461.39999389648</ele>
        <time>2022-09-15T09:41:44Z</time>
      </trkpt>
      <trkpt lat="46.68847" lon="5.64058">
        <ele>462.79998779297</ele>
        <time>2022-09-15T09:41:57Z</time>
      </trkpt>
      <trkpt lat="46.68846" lon="5.64058">
        <ele>464.39999389648</ele>
        <time>2022-09-15T09:42:07Z</time>
      </trkpt>
      <trkpt lat="46.68845" lon="5.64048">
        <ele>466.39999389648</ele>
        <time>2022-09-15T09:42:20Z</time>
      </trkpt>
      <trkpt lat="46.68848" lon="5.64042">
        <ele>467.79998779297</ele>
        <time>2022-09-15T09:42:34Z</time>
      </trkpt>
      <trkpt lat="46.68844" lon="5.64035">
        <ele>469.20001220703</ele>
        <time>2022-09-15T09:42:48Z</time>
      </trkpt>
      <trkpt lat="46.68842" lon="5.64028">
        <ele>471.20001220703</ele>
        <time>2022-09-15T09:43:00Z</time>
      </trkpt>
      <trkpt lat="46.6884" lon="5.64024">
        <ele>472.60000610352</ele>
        <time>2022-09-15T09:43:22Z</time>
      </trkpt>
      <trkpt lat="46.68839" lon="5.64031">
        <ele>472.79998779297</ele>
        <time>2022-09-15T09:43:34Z</time>
      </trkpt>
      <trkpt lat="46.68834" lon="5.64041">
        <ele>475.79998779297</ele>
        <time>2022-09-15T09:43:49Z</time>
      </trkpt>
      <trkpt lat="46.68834" lon="5.6405">
        <ele>478.79998779297</ele>
        <time>2022-09-15T09:44:07Z</time>
      </trkpt>
      <trkpt lat="46.68829" lon="5.64041">
        <ele>480.79998779297</ele>
        <time>2022-09-15T09:44:27Z</time>
      </trkpt>
      <trkpt lat="46.68829" lon="5.64022">
        <ele>481</ele>
        <time>2022-09-15T09:44:42Z</time>
      </trkpt>
      <trkpt lat="46.68827" lon="5.64005">
        <ele>482.39999389648</ele>
        <time>2022-09-15T09:44:56Z</time>
      </trkpt>
      <trkpt lat="46.68829" lon="5.63992">
        <ele>483.39999389648</ele>
        <time>2022-09-15T09:45:13Z</time>
      </trkpt>
      <trkpt lat="46.68832" lon="5.63992">
        <ele>483.20001220703</ele>
        <time>2022-09-15T09:45:43Z</time>
      </trkpt>
      <trkpt lat="46.68845" lon="5.63999">
        <ele>483.60000610352</ele>
        <time>2022-09-15T09:46:50Z</time>
      </trkpt>
      <trkpt lat="46.68846" lon="5.63999">
        <ele>484.39999389648</ele>
        <time>2022-09-15T09:48:11Z</time>
      </trkpt>
      <trkpt lat="46.68842" lon="5.64005">
        <ele>484.79998779297</ele>
        <time>2022-09-15T09:48:38Z</time>
      </trkpt>
      <trkpt lat="46.68836" lon="5.63996">
        <ele>485.60000610352</ele>
        <time>2022-09-15T09:48:50Z</time>
      </trkpt>
      <trkpt lat="46.68835" lon="5.6398">
        <ele>486.60000610352</ele>
        <time>2022-09-15T09:49:04Z</time>
      </trkpt>
      <trkpt lat="46.68835" lon="5.63979">
        <ele>487.20001220703</ele>
        <time>2022-09-15T09:49:49Z</time>
      </trkpt>
      <trkpt lat="46.68833" lon="5.6398">
        <ele>487</ele>
        <time>2022-09-15T09:50:01Z</time>
      </trkpt>
      <trkpt lat="46.68836" lon="5.63978">
        <ele>487.39999389648</ele>
        <time>2022-09-15T09:50:20Z</time>
      </trkpt>
      <trkpt lat="46.68832" lon="5.6398">
        <ele>487.79998779297</ele>
        <time>2022-09-15T09:50:48Z</time>
      </trkpt>
      <trkpt lat="46.68836" lon="5.63982">
        <ele>487.79998779297</ele>
        <time>2022-09-15T09:51:06Z</time>
      </trkpt>
      <trkpt lat="46.68838" lon="5.63985">
        <ele>488</ele>
        <time>2022-09-15T09:51:19Z</time>
      </trkpt>
      <trkpt lat="46.68838" lon="5.63993">
        <ele>488</ele>
        <time>2022-09-15T09:51:30Z</time>
      </trkpt>
      <trkpt lat="46.68838" lon="5.63993">
        <ele>488.20001220703</ele>
        <time>2022-09-15T09:51:44Z</time>
      </trkpt>
      <trkpt lat="46.68838" lon="5.63991">
        <ele>488.20001220703</ele>
        <time>2022-09-15T09:51:58Z</time>
      </trkpt>
      <trkpt lat="46.68841" lon="5.63981">
        <ele>488.20001220703</ele>
        <time>2022-09-15T09:52:10Z</time>
      </trkpt>
      <trkpt lat="46.68835" lon="5.63988">
        <ele>488.20001220703</ele>
        <time>2022-09-15T09:52:20Z</time>
      </trkpt>
      <trkpt lat="46.68833" lon="5.63983">
        <ele>488.39999389648</ele>
        <time>2022-09-15T09:52:33Z</time>
      </trkpt>
      <trkpt lat="46.68834" lon="5.63987">
        <ele>488.39999389648</ele>
        <time>2022-09-15T09:52:55Z</time>
      </trkpt>
      <trkpt lat="46.68839" lon="5.63999">
        <ele>488.60000610352</ele>
        <time>2022-09-15T09:53:08Z</time>
      </trkpt>
      <trkpt lat="46.68838" lon="5.63993">
        <ele>488.79998779297</ele>
        <time>2022-09-15T09:53:54Z</time>
      </trkpt>
      <trkpt lat="46.68832" lon="5.63982">
        <ele>488.79998779297</ele>
        <time>2022-09-15T09:54:03Z</time>
      </trkpt>
      <trkpt lat="46.68835" lon="5.63977">
        <ele>488.79998779297</ele>
        <time>2022-09-15T09:54:12Z</time>
      </trkpt>
      <trkpt lat="46.68838" lon="5.63974">
        <ele>488.79998779297</ele>
        <time>2022-09-15T09:54:16Z</time>
      </trkpt>
      <trkpt lat="46.68849" lon="5.63959">
        <ele>488.79998779297</ele>
        <time>2022-09-15T09:54:30Z</time>
      </trkpt>
      <trkpt lat="46.6885" lon="5.63959">
        <ele>489</ele>
        <time>2022-09-15T09:54:33Z</time>
      </trkpt>
      <trkpt lat="46.68851" lon="5.63957">
        <ele>489</ele>
        <time>2022-09-15T09:54:47Z</time>
      </trkpt>
      <trkpt lat="46.68864" lon="5.63934">
        <ele>489</ele>
        <time>2022-09-15T09:55:09Z</time>
      </trkpt>
      <trkpt lat="46.68866" lon="5.63927">
        <ele>489</ele>
        <time>2022-09-15T09:55:17Z</time>
      </trkpt>
      <trkpt lat="46.68867" lon="5.63924">
        <ele>488.79998779297</ele>
        <time>2022-09-15T09:55:35Z</time>
      </trkpt>
      <trkpt lat="46.6887" lon="5.63922">
        <ele>489</ele>
        <time>2022-09-15T09:55:45Z</time>
      </trkpt>
      <trkpt lat="46.6887" lon="5.6392">
        <ele>488.79998779297</ele>
        <time>2022-09-15T09:55:47Z</time>
      </trkpt>
      <trkpt lat="46.68869" lon="5.63919">
        <ele>488.79998779297</ele>
        <time>2022-09-15T09:55:53Z</time>
      </trkpt>
      <trkpt lat="46.6887" lon="5.639">
        <ele>488.20001220703</ele>
        <time>2022-09-15T09:56:12Z</time>
      </trkpt>
      <trkpt lat="46.68873" lon="5.63896">
        <ele>488.20001220703</ele>
        <time>2022-09-15T09:56:16Z</time>
      </trkpt>
      <trkpt lat="46.68876" lon="5.63897">
        <ele>488</ele>
        <time>2022-09-15T09:56:19Z</time>
      </trkpt>
      <trkpt lat="46.68878" lon="5.639">
        <ele>487.79998779297</ele>
        <time>2022-09-15T09:56:22Z</time>
      </trkpt>
      <trkpt lat="46.68866" lon="5.63898">
        <ele>486.79998779297</ele>
        <time>2022-09-15T09:56:44Z</time>
      </trkpt>
      <trkpt lat="46.6885" lon="5.63918">
        <ele>485</ele>
        <time>2022-09-15T09:56:59Z</time>
      </trkpt>
      <trkpt lat="46.68841" lon="5.63924">
        <ele>484.39999389648</ele>
        <time>2022-09-15T09:57:04Z</time>
      </trkpt>
      <trkpt lat="46.68833" lon="5.63926">
        <ele>482.39999389648</ele>
        <time>2022-09-15T09:57:17Z</time>
      </trkpt>
      <trkpt lat="46.68836" lon="5.63939">
        <ele>480.60000610352</ele>
        <time>2022-09-15T09:57:28Z</time>
      </trkpt>
      <trkpt lat="46.68837" lon="5.63941">
        <ele>480.20001220703</ele>
        <time>2022-09-15T09:57:30Z</time>
      </trkpt>
      <trkpt lat="46.68841" lon="5.63956">
        <ele>479.79998779297</ele>
        <time>2022-09-15T09:57:38Z</time>
      </trkpt>
      <trkpt lat="46.68843" lon="5.63963">
        <ele>479.79998779297</ele>
        <time>2022-09-15T09:57:43Z</time>
      </trkpt>
      <trkpt lat="46.68845" lon="5.63979">
        <ele>479.79998779297</ele>
        <time>2022-09-15T09:57:51Z</time>
      </trkpt>
      <trkpt lat="46.68848" lon="5.63992">
        <ele>479.79998779297</ele>
        <time>2022-09-15T09:58:01Z</time>
      </trkpt>
      <trkpt lat="46.68846" lon="5.64004">
        <ele>479.79998779297</ele>
        <time>2022-09-15T09:58:09Z</time>
      </trkpt>
      <trkpt lat="46.68844" lon="5.64008">
        <ele>479.79998779297</ele>
        <time>2022-09-15T09:58:14Z</time>
      </trkpt>
      <trkpt lat="46.68844" lon="5.64017">
        <ele>480.20001220703</ele>
        <time>2022-09-15T09:58:20Z</time>
      </trkpt>
      <trkpt lat="46.68836" lon="5.64035">
        <ele>480.20001220703</ele>
        <time>2022-09-15T09:58:35Z</time>
      </trkpt>
      <trkpt lat="46.68838" lon="5.64057">
        <ele>479.20001220703</ele>
        <time>2022-09-15T09:58:51Z</time>
      </trkpt>
      <trkpt lat="46.68839" lon="5.64075">
        <ele>479</ele>
        <time>2022-09-15T09:59:09Z</time>
      </trkpt>
      <trkpt lat="46.68843" lon="5.64091">
        <ele>479.20001220703</ele>
        <time>2022-09-15T09:59:17Z</time>
      </trkpt>
      <trkpt lat="46.68844" lon="5.64112">
        <ele>479.20001220703</ele>
        <time>2022-09-15T09:59:26Z</time>
      </trkpt>
      <trkpt lat="46.68845" lon="5.6413">
        <ele>478.79998779297</ele>
        <time>2022-09-15T09:59:35Z</time>
      </trkpt>
      <trkpt lat="46.68846" lon="5.64156">
        <ele>478.20001220703</ele>
        <time>2022-09-15T09:59:47Z</time>
      </trkpt>
      <trkpt lat="46.68846" lon="5.6416">
        <ele>478.20001220703</ele>
        <time>2022-09-15T09:59:50Z</time>
      </trkpt>
      <trkpt lat="46.68843" lon="5.64184">
        <ele>478</ele>
        <time>2022-09-15T10:00:02Z</time>
      </trkpt>
      <trkpt lat="46.68815" lon="5.6421">
        <ele>478</ele>
        <time>2022-09-15T10:00:22Z</time>
      </trkpt>
      <trkpt lat="46.68814" lon="5.64238">
        <ele>478.20001220703</ele>
        <time>2022-09-15T10:00:38Z</time>
      </trkpt>
      <trkpt lat="46.68828" lon="5.64247">
        <ele>478.39999389648</ele>
        <time>2022-09-15T10:00:53Z</time>
      </trkpt>
      <trkpt lat="46.68842" lon="5.64264">
        <ele>478.39999389648</ele>
        <time>2022-09-15T10:01:10Z</time>
      </trkpt>
      <trkpt lat="46.68845" lon="5.64271">
        <ele>478.20001220703</ele>
        <time>2022-09-15T10:01:17Z</time>
      </trkpt>
      <trkpt lat="46.68853" lon="5.64286">
        <ele>477.39999389648</ele>
        <time>2022-09-15T10:01:36Z</time>
      </trkpt>
      <trkpt lat="46.68858" lon="5.64295">
        <ele>477</ele>
        <time>2022-09-15T10:01:47Z</time>
      </trkpt>
      <trkpt lat="46.68864" lon="5.64314">
        <ele>476.60000610352</ele>
        <time>2022-09-15T10:02:09Z</time>
      </trkpt>
      <trkpt lat="46.68872" lon="5.64328">
        <ele>476.20001220703</ele>
        <time>2022-09-15T10:02:21Z</time>
      </trkpt>
      <trkpt lat="46.68886" lon="5.64344">
        <ele>475.60000610352</ele>
        <time>2022-09-15T10:02:36Z</time>
      </trkpt>
      <trkpt lat="46.68897" lon="5.64359">
        <ele>475</ele>
        <time>2022-09-15T10:02:50Z</time>
      </trkpt>
      <trkpt lat="46.68899" lon="5.64364">
        <ele>475</ele>
        <time>2022-09-15T10:02:54Z</time>
      </trkpt>
      <trkpt lat="46.68903" lon="5.64364">
        <ele>474.60000610352</ele>
        <time>2022-09-15T10:02:59Z</time>
      </trkpt>
      <trkpt lat="46.6891" lon="5.64371">
        <ele>474.39999389648</ele>
        <time>2022-09-15T10:03:10Z</time>
      </trkpt>
      <trkpt lat="46.68912" lon="5.64378">
        <ele>474.39999389648</ele>
        <time>2022-09-15T10:03:16Z</time>
      </trkpt>
      <trkpt lat="46.68918" lon="5.64396">
        <ele>474.60000610352</ele>
        <time>2022-09-15T10:03:22Z</time>
      </trkpt>
      <trkpt lat="46.68922" lon="5.64401">
        <ele>474.60000610352</ele>
        <time>2022-09-15T10:03:26Z</time>
      </trkpt>
      <trkpt lat="46.6893" lon="5.64409">
        <ele>474.79998779297</ele>
        <time>2022-09-15T10:03:33Z</time>
      </trkpt>
      <trkpt lat="46.68943" lon="5.64413">
        <ele>474.79998779297</ele>
        <time>2022-09-15T10:03:39Z</time>
      </trkpt>
      <trkpt lat="46.68945" lon="5.64413">
        <ele>474.79998779297</ele>
        <time>2022-09-15T10:03:40Z</time>
      </trkpt>
      <trkpt lat="46.68958" lon="5.6442">
        <ele>475</ele>
        <time>2022-09-15T10:03:48Z</time>
      </trkpt>
      <trkpt lat="46.68962" lon="5.64422">
        <ele>475</ele>
        <time>2022-09-15T10:03:52Z</time>
      </trkpt>
      <trkpt lat="46.68963" lon="5.64423">
        <ele>475</ele>
        <time>2022-09-15T10:03:53Z</time>
      </trkpt>
      <trkpt lat="46.68964" lon="5.64424">
        <ele>475</ele>
        <time>2022-09-15T10:03:54Z</time>
      </trkpt>
      <trkpt lat="46.68983" lon="5.64436">
        <ele>475.39999389648</ele>
        <time>2022-09-15T10:04:04Z</time>
      </trkpt>
      <trkpt lat="46.68992" lon="5.64442">
        <ele>475.60000610352</ele>
        <time>2022-09-15T10:04:09Z</time>
      </trkpt>
      <trkpt lat="46.69001" lon="5.64459">
        <ele>476.20001220703</ele>
        <time>2022-09-15T10:04:19Z</time>
      </trkpt>
      <trkpt lat="46.69002" lon="5.64462">
        <ele>476.20001220703</ele>
        <time>2022-09-15T10:04:22Z</time>
      </trkpt>
      <trkpt lat="46.69003" lon="5.64463">
        <ele>476.20001220703</ele>
        <time>2022-09-15T10:04:23Z</time>
      </trkpt>
      <trkpt lat="46.69004" lon="5.64474">
        <ele>476.39999389648</ele>
        <time>2022-09-15T10:04:32Z</time>
      </trkpt>
      <trkpt lat="46.69015" lon="5.64485">
        <ele>476.60000610352</ele>
        <time>2022-09-15T10:04:40Z</time>
      </trkpt>
      <trkpt lat="46.69017" lon="5.64487">
        <ele>476.60000610352</ele>
        <time>2022-09-15T10:04:41Z</time>
      </trkpt>
      <trkpt lat="46.69017" lon="5.64489">
        <ele>476.60000610352</ele>
        <time>2022-09-15T10:04:42Z</time>
      </trkpt>
      <trkpt lat="46.69024" lon="5.64494">
        <ele>476.79998779297</ele>
        <time>2022-09-15T10:04:47Z</time>
      </trkpt>
      <trkpt lat="46.69025" lon="5.64495">
        <ele>476.79998779297</ele>
        <time>2022-09-15T10:04:48Z</time>
      </trkpt>
      <trkpt lat="46.69028" lon="5.64504">
        <ele>477</ele>
        <time>2022-09-15T10:04:55Z</time>
      </trkpt>
      <trkpt lat="46.69028" lon="5.64508">
        <ele>477.20001220703</ele>
        <time>2022-09-15T10:04:58Z</time>
      </trkpt>
      <trkpt lat="46.69028" lon="5.64509">
        <ele>477.39999389648</ele>
        <time>2022-09-15T10:04:59Z</time>
      </trkpt>
      <trkpt lat="46.69029" lon="5.64514">
        <ele>477.39999389648</ele>
        <time>2022-09-15T10:05:02Z</time>
      </trkpt>
      <trkpt lat="46.69029" lon="5.64515">
        <ele>477.60000610352</ele>
        <time>2022-09-15T10:05:03Z</time>
      </trkpt>
      <trkpt lat="46.6903" lon="5.64516">
        <ele>477.60000610352</ele>
        <time>2022-09-15T10:05:04Z</time>
      </trkpt>
      <trkpt lat="46.69031" lon="5.64518">
        <ele>477.60000610352</ele>
        <time>2022-09-15T10:05:05Z</time>
      </trkpt>
      <trkpt lat="46.69032" lon="5.64519">
        <ele>477.60000610352</ele>
        <time>2022-09-15T10:05:06Z</time>
      </trkpt>
      <trkpt lat="46.69037" lon="5.64533">
        <ele>478</ele>
        <time>2022-09-15T10:05:12Z</time>
      </trkpt>
      <trkpt lat="46.69039" lon="5.64534">
        <ele>478.20001220703</ele>
        <time>2022-09-15T10:05:13Z</time>
      </trkpt>
      <trkpt lat="46.69038" lon="5.64536">
        <ele>478.39999389648</ele>
        <time>2022-09-15T10:05:14Z</time>
      </trkpt>
      <trkpt lat="46.6904" lon="5.64537">
        <ele>478.39999389648</ele>
        <time>2022-09-15T10:05:15Z</time>
      </trkpt>
      <trkpt lat="46.69041" lon="5.64538">
        <ele>478.39999389648</ele>
        <time>2022-09-15T10:05:16Z</time>
      </trkpt>
      <trkpt lat="46.69042" lon="5.64539">
        <ele>478.60000610352</ele>
        <time>2022-09-15T10:05:17Z</time>
      </trkpt>
      <trkpt lat="46.69041" lon="5.64541">
        <ele>478.60000610352</ele>
        <time>2022-09-15T10:05:18Z</time>
      </trkpt>
      <trkpt lat="46.69043" lon="5.64543">
        <ele>478.79998779297</ele>
        <time>2022-09-15T10:05:19Z</time>
      </trkpt>
      <trkpt lat="46.69045" lon="5.64548">
        <ele>478.79998779297</ele>
        <time>2022-09-15T10:05:22Z</time>
      </trkpt>
      <trkpt lat="46.69046" lon="5.64549">
        <ele>478.79998779297</ele>
        <time>2022-09-15T10:05:23Z</time>
      </trkpt>
      <trkpt lat="46.69044" lon="5.64552">
        <ele>479</ele>
        <time>2022-09-15T10:05:24Z</time>
      </trkpt>
      <trkpt lat="46.69044" lon="5.64555">
        <ele>479</ele>
        <time>2022-09-15T10:05:25Z</time>
      </trkpt>
      <trkpt lat="46.69045" lon="5.64556">
        <ele>479</ele>
        <time>2022-09-15T10:05:26Z</time>
      </trkpt>
      <trkpt lat="46.69046" lon="5.64557">
        <ele>479</ele>
        <time>2022-09-15T10:05:27Z</time>
      </trkpt>
      <trkpt lat="46.69047" lon="5.64558">
        <ele>479</ele>
        <time>2022-09-15T10:05:28Z</time>
      </trkpt>
      <trkpt lat="46.69047" lon="5.6456">
        <ele>479.20001220703</ele>
        <time>2022-09-15T10:05:29Z</time>
      </trkpt>
      <trkpt lat="46.69048" lon="5.6456">
        <ele>479.20001220703</ele>
        <time>2022-09-15T10:05:30Z</time>
      </trkpt>
      <trkpt lat="46.69049" lon="5.64561">
        <ele>479.20001220703</ele>
        <time>2022-09-15T10:05:31Z</time>
      </trkpt>
      <trkpt lat="46.69049" lon="5.6456">
        <ele>479.20001220703</ele>
        <time>2022-09-15T10:05:32Z</time>
      </trkpt>
      <trkpt lat="46.6905" lon="5.6456">
        <ele>479.39999389648</ele>
        <time>2022-09-15T10:05:33Z</time>
      </trkpt>
      <trkpt lat="46.69051" lon="5.6456">
        <ele>479.39999389648</ele>
        <time>2022-09-15T10:05:34Z</time>
      </trkpt>
      <trkpt lat="46.69054" lon="5.64565">
        <ele>479.79998779297</ele>
        <time>2022-09-15T10:05:39Z</time>
      </trkpt>
      <trkpt lat="46.69055" lon="5.64571">
        <ele>479.79998779297</ele>
        <time>2022-09-15T10:05:41Z</time>
      </trkpt>
      <trkpt lat="46.69056" lon="5.64569">
        <ele>479.79998779297</ele>
        <time>2022-09-15T10:05:42Z</time>
      </trkpt>
      <trkpt lat="46.69058" lon="5.6457">
        <ele>480</ele>
        <time>2022-09-15T10:05:43Z</time>
      </trkpt>
      <trkpt lat="46.69062" lon="5.64571">
        <ele>480</ele>
        <time>2022-09-15T10:05:46Z</time>
      </trkpt>
      <trkpt lat="46.69065" lon="5.64577">
        <ele>480.39999389648</ele>
        <time>2022-09-15T10:05:53Z</time>
      </trkpt>
      <trkpt lat="46.69068" lon="5.64582">
        <ele>480.60000610352</ele>
        <time>2022-09-15T10:05:59Z</time>
      </trkpt>
      <trkpt lat="46.69069" lon="5.64584">
        <ele>480.60000610352</ele>
        <time>2022-09-15T10:06:00Z</time>
      </trkpt>
      <trkpt lat="46.69068" lon="5.64585">
        <ele>480.60000610352</ele>
        <time>2022-09-15T10:06:02Z</time>
      </trkpt>
      <trkpt lat="46.69076" lon="5.64585">
        <ele>480.60000610352</ele>
        <time>2022-09-15T10:06:10Z</time>
      </trkpt>
      <trkpt lat="46.6908" lon="5.64585">
        <ele>480.39999389648</ele>
        <time>2022-09-15T10:06:12Z</time>
      </trkpt>
      <trkpt lat="46.69083" lon="5.64585">
        <ele>480.39999389648</ele>
        <time>2022-09-15T10:06:13Z</time>
      </trkpt>
      <trkpt lat="46.69089" lon="5.64594">
        <ele>480.39999389648</ele>
        <time>2022-09-15T10:06:18Z</time>
      </trkpt>
      <trkpt lat="46.6909" lon="5.64596">
        <ele>480.39999389648</ele>
        <time>2022-09-15T10:06:20Z</time>
      </trkpt>
      <trkpt lat="46.69091" lon="5.64598">
        <ele>480.39999389648</ele>
        <time>2022-09-15T10:06:21Z</time>
      </trkpt>
      <trkpt lat="46.69096" lon="5.6461">
        <ele>480.39999389648</ele>
        <time>2022-09-15T10:06:26Z</time>
      </trkpt>
      <trkpt lat="46.69098" lon="5.64613">
        <ele>480.39999389648</ele>
        <time>2022-09-15T10:06:27Z</time>
      </trkpt>
      <trkpt lat="46.69101" lon="5.64616">
        <ele>480.39999389648</ele>
        <time>2022-09-15T10:06:28Z</time>
      </trkpt>
      <trkpt lat="46.69106" lon="5.64622">
        <ele>480.39999389648</ele>
        <time>2022-09-15T10:06:31Z</time>
      </trkpt>
      <trkpt lat="46.69106" lon="5.64622">
        <ele>480.39999389648</ele>
        <time>2022-09-15T10:06:32Z</time>
      </trkpt>
      <trkpt lat="46.69109" lon="5.64622">
        <ele>480.39999389648</ele>
        <time>2022-09-15T10:06:33Z</time>
      </trkpt>
      <trkpt lat="46.69109" lon="5.64624">
        <ele>480.39999389648</ele>
        <time>2022-09-15T10:06:34Z</time>
      </trkpt>
      <trkpt lat="46.69109" lon="5.64626">
        <ele>480.39999389648</ele>
        <time>2022-09-15T10:06:35Z</time>
      </trkpt>
      <trkpt lat="46.6911" lon="5.64629">
        <ele>480.39999389648</ele>
        <time>2022-09-15T10:06:38Z</time>
      </trkpt>
      <trkpt lat="46.6911" lon="5.6463">
        <ele>480.39999389648</ele>
        <time>2022-09-15T10:06:39Z</time>
      </trkpt>
      <trkpt lat="46.6911" lon="5.64632">
        <ele>480.39999389648</ele>
        <time>2022-09-15T10:06:40Z</time>
      </trkpt>
      <trkpt lat="46.69111" lon="5.64634">
        <ele>480.39999389648</ele>
        <time>2022-09-15T10:06:41Z</time>
      </trkpt>
      <trkpt lat="46.69112" lon="5.64639">
        <ele>480.60000610352</ele>
        <time>2022-09-15T10:06:43Z</time>
      </trkpt>
      <trkpt lat="46.69113" lon="5.64641">
        <ele>480.60000610352</ele>
        <time>2022-09-15T10:06:44Z</time>
      </trkpt>
      <trkpt lat="46.69114" lon="5.64642">
        <ele>480.60000610352</ele>
        <time>2022-09-15T10:06:45Z</time>
      </trkpt>
      <trkpt lat="46.69115" lon="5.64643">
        <ele>480.60000610352</ele>
        <time>2022-09-15T10:06:46Z</time>
      </trkpt>
      <trkpt lat="46.69115" lon="5.64647">
        <ele>480.60000610352</ele>
        <time>2022-09-15T10:06:47Z</time>
      </trkpt>
      <trkpt lat="46.69115" lon="5.64648">
        <ele>480.60000610352</ele>
        <time>2022-09-15T10:06:48Z</time>
      </trkpt>
      <trkpt lat="46.69115" lon="5.64648">
        <ele>480.79998779297</ele>
        <time>2022-09-15T10:06:49Z</time>
      </trkpt>
      <trkpt lat="46.69116" lon="5.64648">
        <ele>480.79998779297</ele>
        <time>2022-09-15T10:06:50Z</time>
      </trkpt>
      <trkpt lat="46.69118" lon="5.64648">
        <ele>480.79998779297</ele>
        <time>2022-09-15T10:06:51Z</time>
      </trkpt>
      <trkpt lat="46.69114" lon="5.64649">
        <ele>480.79998779297</ele>
        <time>2022-09-15T10:06:53Z</time>
      </trkpt>
      <trkpt lat="46.69113" lon="5.64651">
        <ele>480.79998779297</ele>
        <time>2022-09-15T10:06:54Z</time>
      </trkpt>
      <trkpt lat="46.69112" lon="5.64653">
        <ele>480.79998779297</ele>
        <time>2022-09-15T10:06:55Z</time>
      </trkpt>
      <trkpt lat="46.69111" lon="5.64654">
        <ele>480.79998779297</ele>
        <time>2022-09-15T10:06:56Z</time>
      </trkpt>
      <trkpt lat="46.69108" lon="5.64659">
        <ele>481</ele>
        <time>2022-09-15T10:07:00Z</time>
      </trkpt>
      <trkpt lat="46.69104" lon="5.64662">
        <ele>481</ele>
        <time>2022-09-15T10:07:05Z</time>
      </trkpt>
      <trkpt lat="46.69103" lon="5.64665">
        <ele>481</ele>
        <time>2022-09-15T10:07:07Z</time>
      </trkpt>
      <trkpt lat="46.69101" lon="5.64669">
        <ele>481</ele>
        <time>2022-09-15T10:07:11Z</time>
      </trkpt>
      <trkpt lat="46.69093" lon="5.64678">
        <ele>481</ele>
        <time>2022-09-15T10:07:15Z</time>
      </trkpt>
      <trkpt lat="46.69092" lon="5.64684">
        <ele>481</ele>
        <time>2022-09-15T10:07:20Z</time>
      </trkpt>
      <trkpt lat="46.69087" lon="5.64691">
        <ele>481</ele>
        <time>2022-09-15T10:07:25Z</time>
      </trkpt>
      <trkpt lat="46.69088" lon="5.64707">
        <ele>481</ele>
        <time>2022-09-15T10:07:33Z</time>
      </trkpt>
      <trkpt lat="46.6909" lon="5.64711">
        <ele>481.20001220703</ele>
        <time>2022-09-15T10:07:34Z</time>
      </trkpt>
      <trkpt lat="46.69092" lon="5.64714">
        <ele>481.20001220703</ele>
        <time>2022-09-15T10:07:35Z</time>
      </trkpt>
      <trkpt lat="46.69096" lon="5.64719">
        <ele>481.20001220703</ele>
        <time>2022-09-15T10:07:38Z</time>
      </trkpt>
      <trkpt lat="46.69096" lon="5.6472">
        <ele>481.20001220703</ele>
        <time>2022-09-15T10:07:39Z</time>
      </trkpt>
      <trkpt lat="46.69097" lon="5.64721">
        <ele>481.20001220703</ele>
        <time>2022-09-15T10:07:40Z</time>
      </trkpt>
      <trkpt lat="46.69106" lon="5.64729">
        <ele>481.39999389648</ele>
        <time>2022-09-15T10:07:47Z</time>
      </trkpt>
      <trkpt lat="46.69108" lon="5.64731">
        <ele>481.60000610352</ele>
        <time>2022-09-15T10:07:48Z</time>
      </trkpt>
      <trkpt lat="46.69109" lon="5.64732">
        <ele>481.60000610352</ele>
        <time>2022-09-15T10:07:49Z</time>
      </trkpt>
      <trkpt lat="46.69114" lon="5.64734">
        <ele>481.79998779297</ele>
        <time>2022-09-15T10:08:02Z</time>
      </trkpt>
      <trkpt lat="46.69127" lon="5.64748">
        <ele>481.39999389648</ele>
        <time>2022-09-15T10:08:13Z</time>
      </trkpt>
      <trkpt lat="46.69133" lon="5.64753">
        <ele>481.20001220703</ele>
        <time>2022-09-15T10:08:24Z</time>
      </trkpt>
      <trkpt lat="46.69145" lon="5.64759">
        <ele>481.20001220703</ele>
        <time>2022-09-15T10:08:35Z</time>
      </trkpt>
      <trkpt lat="46.69146" lon="5.6476">
        <ele>482</ele>
        <time>2022-09-15T10:08:41Z</time>
      </trkpt>
      <trkpt lat="46.69157" lon="5.64773">
        <ele>482.39999389648</ele>
        <time>2022-09-15T10:08:51Z</time>
      </trkpt>
      <trkpt lat="46.69166" lon="5.64782">
        <ele>483.20001220703</ele>
        <time>2022-09-15T10:09:00Z</time>
      </trkpt>
      <trkpt lat="46.6917" lon="5.64785">
        <ele>484.20001220703</ele>
        <time>2022-09-15T10:09:12Z</time>
      </trkpt>
      <trkpt lat="46.69172" lon="5.64786">
        <ele>484.39999389648</ele>
        <time>2022-09-15T10:09:16Z</time>
      </trkpt>
      <trkpt lat="46.69182" lon="5.64802">
        <ele>485.39999389648</ele>
        <time>2022-09-15T10:09:32Z</time>
      </trkpt>
      <trkpt lat="46.69195" lon="5.64814">
        <ele>485.39999389648</ele>
        <time>2022-09-15T10:09:41Z</time>
      </trkpt>
      <trkpt lat="46.69208" lon="5.64828">
        <ele>485.60000610352</ele>
        <time>2022-09-15T10:09:49Z</time>
      </trkpt>
      <trkpt lat="46.69221" lon="5.64842">
        <ele>485.20001220703</ele>
        <time>2022-09-15T10:10:02Z</time>
      </trkpt>
      <trkpt lat="46.69237" lon="5.64847">
        <ele>485.20001220703</ele>
        <time>2022-09-15T10:10:13Z</time>
      </trkpt>
      <trkpt lat="46.69253" lon="5.64855">
        <ele>485.60000610352</ele>
        <time>2022-09-15T10:10:29Z</time>
      </trkpt>
      <trkpt lat="46.69275" lon="5.6486">
        <ele>486.20001220703</ele>
        <time>2022-09-15T10:10:49Z</time>
      </trkpt>
      <trkpt lat="46.69293" lon="5.64878">
        <ele>487.20001220703</ele>
        <time>2022-09-15T10:11:09Z</time>
      </trkpt>
      <trkpt lat="46.69313" lon="5.64895">
        <ele>487</ele>
        <time>2022-09-15T10:11:25Z</time>
      </trkpt>
      <trkpt lat="46.69324" lon="5.64902">
        <ele>486.79998779297</ele>
        <time>2022-09-15T10:11:30Z</time>
      </trkpt>
      <trkpt lat="46.69339" lon="5.64918">
        <ele>486.79998779297</ele>
        <time>2022-09-15T10:11:35Z</time>
      </trkpt>
      <trkpt lat="46.69351" lon="5.64931">
        <ele>487</ele>
        <time>2022-09-15T10:11:45Z</time>
      </trkpt>
      <trkpt lat="46.69359" lon="5.64946">
        <ele>487.39999389648</ele>
        <time>2022-09-15T10:11:56Z</time>
      </trkpt>
      <trkpt lat="46.69371" lon="5.64958">
        <ele>488.20001220703</ele>
        <time>2022-09-15T10:12:07Z</time>
      </trkpt>
      <trkpt lat="46.6938" lon="5.64964">
        <ele>488.20001220703</ele>
        <time>2022-09-15T10:12:22Z</time>
      </trkpt>
      <trkpt lat="46.69385" lon="5.64967">
        <ele>488.39999389648</ele>
        <time>2022-09-15T10:12:28Z</time>
      </trkpt>
      <trkpt lat="46.69397" lon="5.64975">
        <ele>488.79998779297</ele>
        <time>2022-09-15T10:12:43Z</time>
      </trkpt>
      <trkpt lat="46.69403" lon="5.6498">
        <ele>489</ele>
        <time>2022-09-15T10:12:52Z</time>
      </trkpt>
      <trkpt lat="46.6942" lon="5.64993">
        <ele>490.39999389648</ele>
        <time>2022-09-15T10:13:12Z</time>
      </trkpt>
      <trkpt lat="46.69433" lon="5.65001">
        <ele>491.60000610352</ele>
        <time>2022-09-15T10:13:26Z</time>
      </trkpt>
      <trkpt lat="46.69438" lon="5.65004">
        <ele>492.20001220703</ele>
        <time>2022-09-15T10:13:34Z</time>
      </trkpt>
      <trkpt lat="46.69444" lon="5.65015">
        <ele>493.20001220703</ele>
        <time>2022-09-15T10:13:44Z</time>
      </trkpt>
      <trkpt lat="46.69457" lon="5.65041">
        <ele>494.39999389648</ele>
        <time>2022-09-15T10:14:05Z</time>
      </trkpt>
      <trkpt lat="46.69464" lon="5.6507">
        <ele>495</ele>
        <time>2022-09-15T10:14:24Z</time>
      </trkpt>
      <trkpt lat="46.69465" lon="5.65095">
        <ele>494.79998779297</ele>
        <time>2022-09-15T10:14:36Z</time>
      </trkpt>
      <trkpt lat="46.69486" lon="5.65129">
        <ele>495</ele>
        <time>2022-09-15T10:14:51Z</time>
      </trkpt>
      <trkpt lat="46.69502" lon="5.65146">
        <ele>496.20001220703</ele>
        <time>2022-09-15T10:15:14Z</time>
      </trkpt>
      <trkpt lat="46.69508" lon="5.65155">
        <ele>496.79998779297</ele>
        <time>2022-09-15T10:15:34Z</time>
      </trkpt>
      <trkpt lat="46.6952" lon="5.65169">
        <ele>495.79998779297</ele>
        <time>2022-09-15T10:15:45Z</time>
      </trkpt>
      <trkpt lat="46.69537" lon="5.65208">
        <ele>496</ele>
        <time>2022-09-15T10:16:00Z</time>
      </trkpt>
      <trkpt lat="46.69542" lon="5.65228">
        <ele>497.39999389648</ele>
        <time>2022-09-15T10:16:20Z</time>
      </trkpt>
      <trkpt lat="46.69546" lon="5.6526">
        <ele>498.79998779297</ele>
        <time>2022-09-15T10:16:41Z</time>
      </trkpt>
      <trkpt lat="46.69565" lon="5.65296">
        <ele>499.20001220703</ele>
        <time>2022-09-15T10:17:02Z</time>
      </trkpt>
      <trkpt lat="46.69576" lon="5.6532">
        <ele>499</ele>
        <time>2022-09-15T10:17:23Z</time>
      </trkpt>
      <trkpt lat="46.69577" lon="5.65343">
        <ele>500</ele>
        <time>2022-09-15T10:17:43Z</time>
      </trkpt>
      <trkpt lat="46.69577" lon="5.65354">
        <ele>500.20001220703</ele>
        <time>2022-09-15T10:17:59Z</time>
      </trkpt>
      <trkpt lat="46.69577" lon="5.65358">
        <ele>499.39999389648</ele>
        <time>2022-09-15T10:18:19Z</time>
      </trkpt>
      <trkpt lat="46.69582" lon="5.65357">
        <ele>499.60000610352</ele>
        <time>2022-09-15T10:18:38Z</time>
      </trkpt>
      <trkpt lat="46.69578" lon="5.65353">
        <ele>500</ele>
        <time>2022-09-15T10:18:51Z</time>
      </trkpt>
      <trkpt lat="46.69577" lon="5.65353">
        <ele>500</ele>
        <time>2022-09-15T10:18:53Z</time>
      </trkpt>
      <trkpt lat="46.69572" lon="5.65353">
        <ele>501.20001220703</ele>
        <time>2022-09-15T10:19:18Z</time>
      </trkpt>
      <trkpt lat="46.69569" lon="5.65353">
        <ele>501.20001220703</ele>
        <time>2022-09-15T10:19:26Z</time>
      </trkpt>
      <trkpt lat="46.69569" lon="5.65352">
        <ele>501</ele>
        <time>2022-09-15T10:19:49Z</time>
      </trkpt>
      <trkpt lat="46.69566" lon="5.65351">
        <ele>501.39999389648</ele>
        <time>2022-09-15T10:20:07Z</time>
      </trkpt>
      <trkpt lat="46.69568" lon="5.65351">
        <ele>501.20001220703</ele>
        <time>2022-09-15T10:20:18Z</time>
      </trkpt>
      <trkpt lat="46.69573" lon="5.6535">
        <ele>501.60000610352</ele>
        <time>2022-09-15T10:20:45Z</time>
      </trkpt>
      <trkpt lat="46.69574" lon="5.65346">
        <ele>501.39999389648</ele>
        <time>2022-09-15T10:21:02Z</time>
      </trkpt>
      <trkpt lat="46.69569" lon="5.65353">
        <ele>501.60000610352</ele>
        <time>2022-09-15T10:21:27Z</time>
      </trkpt>
      <trkpt lat="46.69569" lon="5.65353">
        <ele>501.60000610352</ele>
        <time>2022-09-15T10:21:28Z</time>
      </trkpt>
      <trkpt lat="46.69565" lon="5.65365">
        <ele>501.60000610352</ele>
        <time>2022-09-15T10:21:44Z</time>
      </trkpt>
      <trkpt lat="46.69568" lon="5.65355">
        <ele>501.39999389648</ele>
        <time>2022-09-15T10:22:04Z</time>
      </trkpt>
      <trkpt lat="46.69577" lon="5.65351">
        <ele>501.60000610352</ele>
        <time>2022-09-15T10:22:18Z</time>
      </trkpt>
      <trkpt lat="46.69576" lon="5.65353">
        <ele>501.60000610352</ele>
        <time>2022-09-15T10:22:53Z</time>
      </trkpt>
      <trkpt lat="46.69574" lon="5.65352">
        <ele>501.60000610352</ele>
        <time>2022-09-15T10:23:06Z</time>
      </trkpt>
      <trkpt lat="46.69571" lon="5.6535">
        <ele>501.60000610352</ele>
        <time>2022-09-15T10:23:10Z</time>
      </trkpt>
      <trkpt lat="46.69565" lon="5.65364">
        <ele>501.79998779297</ele>
        <time>2022-09-15T10:23:27Z</time>
      </trkpt>
      <trkpt lat="46.69558" lon="5.6539">
        <ele>500</ele>
        <time>2022-09-15T10:23:45Z</time>
      </trkpt>
      <trkpt lat="46.69556" lon="5.65419">
        <ele>499.39999389648</ele>
        <time>2022-09-15T10:24:03Z</time>
      </trkpt>
      <trkpt lat="46.69557" lon="5.65446">
        <ele>499.79998779297</ele>
        <time>2022-09-15T10:24:22Z</time>
      </trkpt>
      <trkpt lat="46.69559" lon="5.65478">
        <ele>500</ele>
        <time>2022-09-15T10:24:40Z</time>
      </trkpt>
      <trkpt lat="46.69561" lon="5.65481">
        <ele>499.79998779297</ele>
        <time>2022-09-15T10:24:42Z</time>
      </trkpt>
      <trkpt lat="46.69568" lon="5.65513">
        <ele>499.20001220703</ele>
        <time>2022-09-15T10:25:01Z</time>
      </trkpt>
      <trkpt lat="46.69573" lon="5.65542">
        <ele>501.39999389648</ele>
        <time>2022-09-15T10:25:23Z</time>
      </trkpt>
      <trkpt lat="46.69566" lon="5.65567">
        <ele>503.20001220703</ele>
        <time>2022-09-15T10:25:42Z</time>
      </trkpt>
      <trkpt lat="46.69554" lon="5.65596">
        <ele>504</ele>
        <time>2022-09-15T10:26:05Z</time>
      </trkpt>
      <trkpt lat="46.69543" lon="5.65624">
        <ele>504.79998779297</ele>
        <time>2022-09-15T10:26:24Z</time>
      </trkpt>
      <trkpt lat="46.69536" lon="5.65648">
        <ele>505.60000610352</ele>
        <time>2022-09-15T10:26:45Z</time>
      </trkpt>
      <trkpt lat="46.69537" lon="5.65658">
        <ele>505.79998779297</ele>
        <time>2022-09-15T10:26:51Z</time>
      </trkpt>
      <trkpt lat="46.69549" lon="5.65692">
        <ele>506.20001220703</ele>
        <time>2022-09-15T10:27:10Z</time>
      </trkpt>
      <trkpt lat="46.69551" lon="5.65713">
        <ele>506.79998779297</ele>
        <time>2022-09-15T10:27:26Z</time>
      </trkpt>
      <trkpt lat="46.69552" lon="5.65743">
        <ele>507.79998779297</ele>
        <time>2022-09-15T10:27:44Z</time>
      </trkpt>
      <trkpt lat="46.69549" lon="5.65767">
        <ele>508.60000610352</ele>
        <time>2022-09-15T10:28:01Z</time>
      </trkpt>
      <trkpt lat="46.69549" lon="5.65791">
        <ele>509.39999389648</ele>
        <time>2022-09-15T10:28:18Z</time>
      </trkpt>
      <trkpt lat="46.6955" lon="5.65817">
        <ele>510.20001220703</ele>
        <time>2022-09-15T10:28:35Z</time>
      </trkpt>
      <trkpt lat="46.6955" lon="5.65824">
        <ele>510.20001220703</ele>
        <time>2022-09-15T10:28:38Z</time>
      </trkpt>
      <trkpt lat="46.69545" lon="5.65837">
        <ele>510.20001220703</ele>
        <time>2022-09-15T10:28:57Z</time>
      </trkpt>
      <trkpt lat="46.69546" lon="5.6586">
        <ele>510.39999389648</ele>
        <time>2022-09-15T10:29:13Z</time>
      </trkpt>
      <trkpt lat="46.69548" lon="5.65887">
        <ele>509.79998779297</ele>
        <time>2022-09-15T10:29:30Z</time>
      </trkpt>
      <trkpt lat="46.69555" lon="5.65914">
        <ele>507.20001220703</ele>
        <time>2022-09-15T10:29:47Z</time>
      </trkpt>
      <trkpt lat="46.69555" lon="5.65917">
        <ele>507</ele>
        <time>2022-09-15T10:29:48Z</time>
      </trkpt>
      <trkpt lat="46.69556" lon="5.65926">
        <ele>506.39999389648</ele>
        <time>2022-09-15T10:29:52Z</time>
      </trkpt>
      <trkpt lat="46.69563" lon="5.65948">
        <ele>504.20001220703</ele>
        <time>2022-09-15T10:30:07Z</time>
      </trkpt>
      <trkpt lat="46.69574" lon="5.65987">
        <ele>502.60000610352</ele>
        <time>2022-09-15T10:30:30Z</time>
      </trkpt>
      <trkpt lat="46.69585" lon="5.66004">
        <ele>502.79998779297</ele>
        <time>2022-09-15T10:30:48Z</time>
      </trkpt>
      <trkpt lat="46.69603" lon="5.66003">
        <ele>503.79998779297</ele>
        <time>2022-09-15T10:31:05Z</time>
      </trkpt>
      <trkpt lat="46.69623" lon="5.66003">
        <ele>504.60000610352</ele>
        <time>2022-09-15T10:31:25Z</time>
      </trkpt>
      <trkpt lat="46.69636" lon="5.66004">
        <ele>505.39999389648</ele>
        <time>2022-09-15T10:31:39Z</time>
      </trkpt>
      <trkpt lat="46.69644" lon="5.66001">
        <ele>505.60000610352</ele>
        <time>2022-09-15T10:32:03Z</time>
      </trkpt>
      <trkpt lat="46.69656" lon="5.66009">
        <ele>506.39999389648</ele>
        <time>2022-09-15T10:32:20Z</time>
      </trkpt>
      <trkpt lat="46.69668" lon="5.66004">
        <ele>507.79998779297</ele>
        <time>2022-09-15T10:32:37Z</time>
      </trkpt>
      <trkpt lat="46.69682" lon="5.65999">
        <ele>508.79998779297</ele>
        <time>2022-09-15T10:32:56Z</time>
      </trkpt>
      <trkpt lat="46.697" lon="5.65997">
        <ele>509.20001220703</ele>
        <time>2022-09-15T10:33:17Z</time>
      </trkpt>
      <trkpt lat="46.6972" lon="5.66003">
        <ele>509.79998779297</ele>
        <time>2022-09-15T10:33:36Z</time>
      </trkpt>
      <trkpt lat="46.6973" lon="5.66015">
        <ele>510.39999389648</ele>
        <time>2022-09-15T10:33:55Z</time>
      </trkpt>
      <trkpt lat="46.69733" lon="5.66012">
        <ele>510.79998779297</ele>
        <time>2022-09-15T10:34:12Z</time>
      </trkpt>
      <trkpt lat="46.69736" lon="5.66014">
        <ele>511</ele>
        <time>2022-09-15T10:34:46Z</time>
      </trkpt>
      <trkpt lat="46.69736" lon="5.66012">
        <ele>510.79998779297</ele>
        <time>2022-09-15T10:35:22Z</time>
      </trkpt>
      <trkpt lat="46.69738" lon="5.66011">
        <ele>510.79998779297</ele>
        <time>2022-09-15T10:36:00Z</time>
      </trkpt>
      <trkpt lat="46.69734" lon="5.66011">
        <ele>511</ele>
        <time>2022-09-15T10:36:39Z</time>
      </trkpt>
      <trkpt lat="46.69735" lon="5.6601">
        <ele>510.79998779297</ele>
        <time>2022-09-15T10:37:03Z</time>
      </trkpt>
      <trkpt lat="46.6974" lon="5.66025">
        <ele>510.79998779297</ele>
        <time>2022-09-15T10:37:19Z</time>
      </trkpt>
      <trkpt lat="46.6975" lon="5.66041">
        <ele>509.39999389648</ele>
        <time>2022-09-15T10:37:35Z</time>
      </trkpt>
      <trkpt lat="46.6975" lon="5.66051">
        <ele>508.79998779297</ele>
        <time>2022-09-15T10:37:38Z</time>
      </trkpt>
      <trkpt lat="46.69758" lon="5.66062">
        <ele>508</ele>
        <time>2022-09-15T10:37:47Z</time>
      </trkpt>
      <trkpt lat="46.69765" lon="5.66077">
        <ele>506.20001220703</ele>
        <time>2022-09-15T10:38:00Z</time>
      </trkpt>
      <trkpt lat="46.69773" lon="5.6608">
        <ele>504.79998779297</ele>
        <time>2022-09-15T10:38:09Z</time>
      </trkpt>
      <trkpt lat="46.69788" lon="5.66076">
        <ele>503.79998779297</ele>
        <time>2022-09-15T10:38:26Z</time>
      </trkpt>
      <trkpt lat="46.69802" lon="5.66072">
        <ele>503.79998779297</ele>
        <time>2022-09-15T10:38:44Z</time>
      </trkpt>
      <trkpt lat="46.6981" lon="5.66066">
        <ele>503.39999389648</ele>
        <time>2022-09-15T10:38:59Z</time>
      </trkpt>
      <trkpt lat="46.69823" lon="5.66069">
        <ele>502.79998779297</ele>
        <time>2022-09-15T10:39:19Z</time>
      </trkpt>
      <trkpt lat="46.69826" lon="5.66064">
        <ele>503.39999389648</ele>
        <time>2022-09-15T10:39:42Z</time>
      </trkpt>
      <trkpt lat="46.69834" lon="5.66062">
        <ele>503.20001220703</ele>
        <time>2022-09-15T10:39:57Z</time>
      </trkpt>
      <trkpt lat="46.69847" lon="5.6605">
        <ele>503.79998779297</ele>
        <time>2022-09-15T10:40:16Z</time>
      </trkpt>
      <trkpt lat="46.69857" lon="5.66038">
        <ele>504.39999389648</ele>
        <time>2022-09-15T10:40:34Z</time>
      </trkpt>
      <trkpt lat="46.69858" lon="5.66036">
        <ele>504.60000610352</ele>
        <time>2022-09-15T10:40:36Z</time>
      </trkpt>
      <trkpt lat="46.69868" lon="5.66027">
        <ele>505.20001220703</ele>
        <time>2022-09-15T10:40:54Z</time>
      </trkpt>
      <trkpt lat="46.69885" lon="5.66029">
        <ele>506.79998779297</ele>
        <time>2022-09-15T10:41:11Z</time>
      </trkpt>
      <trkpt lat="46.69895" lon="5.66019">
        <ele>506.79998779297</ele>
        <time>2022-09-15T10:41:30Z</time>
      </trkpt>
      <trkpt lat="46.69902" lon="5.6602">
        <ele>506.60000610352</ele>
        <time>2022-09-15T10:42:01Z</time>
      </trkpt>
      <trkpt lat="46.69908" lon="5.66015">
        <ele>506</ele>
        <time>2022-09-15T10:42:18Z</time>
      </trkpt>
      <trkpt lat="46.69916" lon="5.66014">
        <ele>505</ele>
        <time>2022-09-15T10:42:31Z</time>
      </trkpt>
      <trkpt lat="46.69924" lon="5.66015">
        <ele>504.79998779297</ele>
        <time>2022-09-15T10:42:45Z</time>
      </trkpt>
      <trkpt lat="46.69933" lon="5.66036">
        <ele>506.20001220703</ele>
        <time>2022-09-15T10:43:04Z</time>
      </trkpt>
      <trkpt lat="46.69936" lon="5.66048">
        <ele>506.79998779297</ele>
        <time>2022-09-15T10:43:20Z</time>
      </trkpt>
      <trkpt lat="46.69935" lon="5.66061">
        <ele>506.79998779297</ele>
        <time>2022-09-15T10:43:35Z</time>
      </trkpt>
      <trkpt lat="46.69941" lon="5.66069">
        <ele>507.60000610352</ele>
        <time>2022-09-15T10:43:53Z</time>
      </trkpt>
      <trkpt lat="46.6995" lon="5.66088">
        <ele>508.39999389648</ele>
        <time>2022-09-15T10:44:07Z</time>
      </trkpt>
      <trkpt lat="46.69957" lon="5.66097">
        <ele>509</ele>
        <time>2022-09-15T10:44:24Z</time>
      </trkpt>
      <trkpt lat="46.69961" lon="5.66105">
        <ele>509.20001220703</ele>
        <time>2022-09-15T10:44:31Z</time>
      </trkpt>
      <trkpt lat="46.69967" lon="5.66113">
        <ele>509.39999389648</ele>
        <time>2022-09-15T10:44:46Z</time>
      </trkpt>
      <trkpt lat="46.6997" lon="5.66116">
        <ele>509.39999389648</ele>
        <time>2022-09-15T10:45:01Z</time>
      </trkpt>
      <trkpt lat="46.69967" lon="5.66117">
        <ele>509.39999389648</ele>
        <time>2022-09-15T10:45:15Z</time>
      </trkpt>
      <trkpt lat="46.69976" lon="5.66121">
        <ele>509.39999389648</ele>
        <time>2022-09-15T10:45:35Z</time>
      </trkpt>
      <trkpt lat="46.69981" lon="5.66123">
        <ele>509.39999389648</ele>
        <time>2022-09-15T10:45:41Z</time>
      </trkpt>
      <trkpt lat="46.69999" lon="5.66125">
        <ele>510</ele>
        <time>2022-09-15T10:46:02Z</time>
      </trkpt>
      <trkpt lat="46.70013" lon="5.66129">
        <ele>510.60000610352</ele>
        <time>2022-09-15T10:46:17Z</time>
      </trkpt>
      <trkpt lat="46.70029" lon="5.66136">
        <ele>510.79998779297</ele>
        <time>2022-09-15T10:46:34Z</time>
      </trkpt>
      <trkpt lat="46.70052" lon="5.66141">
        <ele>510.79998779297</ele>
        <time>2022-09-15T10:46:53Z</time>
      </trkpt>
      <trkpt lat="46.70071" lon="5.66148">
        <ele>511.20001220703</ele>
        <time>2022-09-15T10:47:11Z</time>
      </trkpt>
      <trkpt lat="46.7009" lon="5.66157">
        <ele>511.20001220703</ele>
        <time>2022-09-15T10:47:30Z</time>
      </trkpt>
      <trkpt lat="46.7011" lon="5.66159">
        <ele>510.60000610352</ele>
        <time>2022-09-15T10:47:46Z</time>
      </trkpt>
      <trkpt lat="46.70118" lon="5.66162">
        <ele>510.39999389648</ele>
        <time>2022-09-15T10:48:03Z</time>
      </trkpt>
      <trkpt lat="46.70122" lon="5.66162">
        <ele>510.20001220703</ele>
        <time>2022-09-15T10:48:09Z</time>
      </trkpt>
      <trkpt lat="46.70137" lon="5.66155">
        <ele>510.20001220703</ele>
        <time>2022-09-15T10:48:26Z</time>
      </trkpt>
      <trkpt lat="46.70156" lon="5.66152">
        <ele>510.20001220703</ele>
        <time>2022-09-15T10:48:42Z</time>
      </trkpt>
      <trkpt lat="46.70172" lon="5.66154">
        <ele>510</ele>
        <time>2022-09-15T10:48:58Z</time>
      </trkpt>
      <trkpt lat="46.7019" lon="5.66163">
        <ele>509.20001220703</ele>
        <time>2022-09-15T10:49:12Z</time>
      </trkpt>
      <trkpt lat="46.70208" lon="5.66169">
        <ele>508.39999389648</ele>
        <time>2022-09-15T10:49:31Z</time>
      </trkpt>
      <trkpt lat="46.70216" lon="5.66173">
        <ele>508.20001220703</ele>
        <time>2022-09-15T10:49:37Z</time>
      </trkpt>
      <trkpt lat="46.7022" lon="5.66185">
        <ele>508.39999389648</ele>
        <time>2022-09-15T10:49:50Z</time>
      </trkpt>
      <trkpt lat="46.70233" lon="5.66192">
        <ele>509.20001220703</ele>
        <time>2022-09-15T10:50:08Z</time>
      </trkpt>
      <trkpt lat="46.70256" lon="5.66192">
        <ele>510.39999389648</ele>
        <time>2022-09-15T10:50:27Z</time>
      </trkpt>
      <trkpt lat="46.70269" lon="5.66192">
        <ele>511</ele>
        <time>2022-09-15T10:50:46Z</time>
      </trkpt>
      <trkpt lat="46.70284" lon="5.66195">
        <ele>511.60000610352</ele>
        <time>2022-09-15T10:51:03Z</time>
      </trkpt>
      <trkpt lat="46.70284" lon="5.66198">
        <ele>511.79998779297</ele>
        <time>2022-09-15T10:51:29Z</time>
      </trkpt>
      <trkpt lat="46.70285" lon="5.66199">
        <ele>511.60000610352</ele>
        <time>2022-09-15T10:52:02Z</time>
      </trkpt>
      <trkpt lat="46.70291" lon="5.6621">
        <ele>511</ele>
        <time>2022-09-15T10:52:25Z</time>
      </trkpt>
      <trkpt lat="46.70295" lon="5.66214">
        <ele>510.79998779297</ele>
        <time>2022-09-15T10:52:28Z</time>
      </trkpt>
      <trkpt lat="46.70318" lon="5.66225">
        <ele>510.20001220703</ele>
        <time>2022-09-15T10:52:42Z</time>
      </trkpt>
      <trkpt lat="46.70328" lon="5.66231">
        <ele>509.39999389648</ele>
        <time>2022-09-15T10:52:53Z</time>
      </trkpt>
      <trkpt lat="46.70345" lon="5.66242">
        <ele>508.60000610352</ele>
        <time>2022-09-15T10:53:08Z</time>
      </trkpt>
      <trkpt lat="46.70347" lon="5.66242">
        <ele>508.39999389648</ele>
        <time>2022-09-15T10:53:09Z</time>
      </trkpt>
      <trkpt lat="46.70359" lon="5.66242">
        <ele>507.60000610352</ele>
        <time>2022-09-15T10:53:22Z</time>
      </trkpt>
      <trkpt lat="46.70359" lon="5.66241">
        <ele>507.39999389648</ele>
        <time>2022-09-15T10:53:39Z</time>
      </trkpt>
      <trkpt lat="46.7037" lon="5.66237">
        <ele>507</ele>
        <time>2022-09-15T10:53:50Z</time>
      </trkpt>
      <trkpt lat="46.70381" lon="5.66232">
        <ele>506.60000610352</ele>
        <time>2022-09-15T10:54:00Z</time>
      </trkpt>
      <trkpt lat="46.70407" lon="5.66221">
        <ele>506</ele>
        <time>2022-09-15T10:54:18Z</time>
      </trkpt>
      <trkpt lat="46.7042" lon="5.66213">
        <ele>505.79998779297</ele>
        <time>2022-09-15T10:54:30Z</time>
      </trkpt>
      <trkpt lat="46.70439" lon="5.66197">
        <ele>505.20001220703</ele>
        <time>2022-09-15T10:54:47Z</time>
      </trkpt>
      <trkpt lat="46.7045" lon="5.6619">
        <ele>504.79998779297</ele>
        <time>2022-09-15T10:54:59Z</time>
      </trkpt>
      <trkpt lat="46.70455" lon="5.66185">
        <ele>504.79998779297</ele>
        <time>2022-09-15T10:55:07Z</time>
      </trkpt>
      <trkpt lat="46.70471" lon="5.66174">
        <ele>504.39999389648</ele>
        <time>2022-09-15T10:55:22Z</time>
      </trkpt>
      <trkpt lat="46.70485" lon="5.66169">
        <ele>504.20001220703</ele>
        <time>2022-09-15T10:55:40Z</time>
      </trkpt>
      <trkpt lat="46.70485" lon="5.66159">
        <ele>503.79998779297</ele>
        <time>2022-09-15T10:56:02Z</time>
      </trkpt>
      <trkpt lat="46.70483" lon="5.66138">
        <ele>503.79998779297</ele>
        <time>2022-09-15T10:56:18Z</time>
      </trkpt>
      <trkpt lat="46.70482" lon="5.66115">
        <ele>503.79998779297</ele>
        <time>2022-09-15T10:56:34Z</time>
      </trkpt>
      <trkpt lat="46.70476" lon="5.66103">
        <ele>504</ele>
        <time>2022-09-15T10:56:46Z</time>
      </trkpt>
      <trkpt lat="46.70463" lon="5.6608">
        <ele>504.20001220703</ele>
        <time>2022-09-15T10:57:05Z</time>
      </trkpt>
      <trkpt lat="46.70459" lon="5.66059">
        <ele>505.39999389648</ele>
        <time>2022-09-15T10:57:24Z</time>
      </trkpt>
      <trkpt lat="46.70447" lon="5.66027">
        <ele>506</ele>
        <time>2022-09-15T10:57:46Z</time>
      </trkpt>
      <trkpt lat="46.70439" lon="5.66006">
        <ele>506</ele>
        <time>2022-09-15T10:58:01Z</time>
      </trkpt>
      <trkpt lat="46.70431" lon="5.65981">
        <ele>504.79998779297</ele>
        <time>2022-09-15T10:58:17Z</time>
      </trkpt>
      <trkpt lat="46.7043" lon="5.6596">
        <ele>503.60000610352</ele>
        <time>2022-09-15T10:58:32Z</time>
      </trkpt>
      <trkpt lat="46.70428" lon="5.6593">
        <ele>504.39999389648</ele>
        <time>2022-09-15T10:58:54Z</time>
      </trkpt>
      <trkpt lat="46.7043" lon="5.65915">
        <ele>505.39999389648</ele>
        <time>2022-09-15T10:59:03Z</time>
      </trkpt>
      <trkpt lat="46.70437" lon="5.6588">
        <ele>507</ele>
        <time>2022-09-15T10:59:24Z</time>
      </trkpt>
      <trkpt lat="46.70432" lon="5.65845">
        <ele>507.39999389648</ele>
        <time>2022-09-15T10:59:40Z</time>
      </trkpt>
      <trkpt lat="46.70439" lon="5.65834">
        <ele>507</ele>
        <time>2022-09-15T10:59:51Z</time>
      </trkpt>
      <trkpt lat="46.70451" lon="5.65818">
        <ele>504.20001220703</ele>
        <time>2022-09-15T11:00:10Z</time>
      </trkpt>
      <trkpt lat="46.70462" lon="5.65796">
        <ele>502</ele>
        <time>2022-09-15T11:00:25Z</time>
      </trkpt>
      <trkpt lat="46.70472" lon="5.65777">
        <ele>500.60000610352</ele>
        <time>2022-09-15T11:00:36Z</time>
      </trkpt>
      <trkpt lat="46.70484" lon="5.65749">
        <ele>499.20001220703</ele>
        <time>2022-09-15T11:00:51Z</time>
      </trkpt>
      <trkpt lat="46.70486" lon="5.65744">
        <ele>499</ele>
        <time>2022-09-15T11:00:54Z</time>
      </trkpt>
      <trkpt lat="46.70499" lon="5.65732">
        <ele>498.39999389648</ele>
        <time>2022-09-15T11:01:07Z</time>
      </trkpt>
      <trkpt lat="46.7051" lon="5.65725">
        <ele>497.39999389648</ele>
        <time>2022-09-15T11:01:17Z</time>
      </trkpt>
      <trkpt lat="46.70523" lon="5.65712">
        <ele>497.20001220703</ele>
        <time>2022-09-15T11:01:30Z</time>
      </trkpt>
      <trkpt lat="46.70533" lon="5.6571">
        <ele>497</ele>
        <time>2022-09-15T11:01:46Z</time>
      </trkpt>
      <trkpt lat="46.70556" lon="5.65717">
        <ele>497.39999389648</ele>
        <time>2022-09-15T11:02:03Z</time>
      </trkpt>
      <trkpt lat="46.70571" lon="5.6573">
        <ele>497.60000610352</ele>
        <time>2022-09-15T11:02:21Z</time>
      </trkpt>
      <trkpt lat="46.70593" lon="5.65746">
        <ele>496.39999389648</ele>
        <time>2022-09-15T11:02:38Z</time>
      </trkpt>
      <trkpt lat="46.70595" lon="5.65752">
        <ele>495.79998779297</ele>
        <time>2022-09-15T11:02:51Z</time>
      </trkpt>
      <trkpt lat="46.70607" lon="5.65775">
        <ele>495.39999389648</ele>
        <time>2022-09-15T11:03:05Z</time>
      </trkpt>
      <trkpt lat="46.70609" lon="5.65777">
        <ele>495.20001220703</ele>
        <time>2022-09-15T11:03:06Z</time>
      </trkpt>
      <trkpt lat="46.70615" lon="5.65794">
        <ele>494.39999389648</ele>
        <time>2022-09-15T11:03:19Z</time>
      </trkpt>
      <trkpt lat="46.70619" lon="5.65813">
        <ele>494.20001220703</ele>
        <time>2022-09-15T11:03:30Z</time>
      </trkpt>
      <trkpt lat="46.70622" lon="5.65819">
        <ele>494.20001220703</ele>
        <time>2022-09-15T11:03:34Z</time>
      </trkpt>
      <trkpt lat="46.70625" lon="5.65831">
        <ele>494</ele>
        <time>2022-09-15T11:03:42Z</time>
      </trkpt>
      <trkpt lat="46.70628" lon="5.65849">
        <ele>494.20001220703</ele>
        <time>2022-09-15T11:03:53Z</time>
      </trkpt>
      <trkpt lat="46.70634" lon="5.65868">
        <ele>494.39999389648</ele>
        <time>2022-09-15T11:04:04Z</time>
      </trkpt>
      <trkpt lat="46.7064" lon="5.65884">
        <ele>494.20001220703</ele>
        <time>2022-09-15T11:04:14Z</time>
      </trkpt>
      <trkpt lat="46.70647" lon="5.65903">
        <ele>494.20001220703</ele>
        <time>2022-09-15T11:04:26Z</time>
      </trkpt>
      <trkpt lat="46.70653" lon="5.65905">
        <ele>493.60000610352</ele>
        <time>2022-09-15T11:04:35Z</time>
      </trkpt>
      <trkpt lat="46.70659" lon="5.65898">
        <ele>493</ele>
        <time>2022-09-15T11:04:40Z</time>
      </trkpt>
      <trkpt lat="46.70665" lon="5.65891">
        <ele>492</ele>
        <time>2022-09-15T11:04:47Z</time>
      </trkpt>
      <trkpt lat="46.70674" lon="5.65889">
        <ele>491</ele>
        <time>2022-09-15T11:04:58Z</time>
      </trkpt>
      <trkpt lat="46.70684" lon="5.65886">
        <ele>490.39999389648</ele>
        <time>2022-09-15T11:05:07Z</time>
      </trkpt>
      <trkpt lat="46.70686" lon="5.65884">
        <ele>490</ele>
        <time>2022-09-15T11:05:10Z</time>
      </trkpt>
      <trkpt lat="46.70699" lon="5.65883">
        <ele>488</ele>
        <time>2022-09-15T11:05:25Z</time>
      </trkpt>
      <trkpt lat="46.70703" lon="5.65886">
        <ele>486.60000610352</ele>
        <time>2022-09-15T11:05:41Z</time>
      </trkpt>
      <trkpt lat="46.70709" lon="5.65887">
        <ele>484</ele>
        <time>2022-09-15T11:05:51Z</time>
      </trkpt>
      <trkpt lat="46.70717" lon="5.65893">
        <ele>481.39999389648</ele>
        <time>2022-09-15T11:06:02Z</time>
      </trkpt>
      <trkpt lat="46.70734" lon="5.65895">
        <ele>478.60000610352</ele>
        <time>2022-09-15T11:06:15Z</time>
      </trkpt>
      <trkpt lat="46.7075" lon="5.65897">
        <ele>475.39999389648</ele>
        <time>2022-09-15T11:06:34Z</time>
      </trkpt>
      <trkpt lat="46.70755" lon="5.65896">
        <ele>473.39999389648</ele>
        <time>2022-09-15T11:06:50Z</time>
      </trkpt>
      <trkpt lat="46.70762" lon="5.65887">
        <ele>471.79998779297</ele>
        <time>2022-09-15T11:07:02Z</time>
      </trkpt>
      <trkpt lat="46.70779" lon="5.65877">
        <ele>469.20001220703</ele>
        <time>2022-09-15T11:07:14Z</time>
      </trkpt>
      <trkpt lat="46.70788" lon="5.65874">
        <ele>466</ele>
        <time>2022-09-15T11:07:27Z</time>
      </trkpt>
      <trkpt lat="46.70793" lon="5.65872">
        <ele>464.39999389648</ele>
        <time>2022-09-15T11:07:54Z</time>
      </trkpt>
      <trkpt lat="46.70799" lon="5.65863">
        <ele>463</ele>
        <time>2022-09-15T11:08:07Z</time>
      </trkpt>
      <trkpt lat="46.70806" lon="5.65857">
        <ele>460.79998779297</ele>
        <time>2022-09-15T11:08:18Z</time>
      </trkpt>
      <trkpt lat="46.70813" lon="5.65843">
        <ele>457.79998779297</ele>
        <time>2022-09-15T11:08:33Z</time>
      </trkpt>
      <trkpt lat="46.70819" lon="5.65833">
        <ele>455.79998779297</ele>
        <time>2022-09-15T11:08:43Z</time>
      </trkpt>
      <trkpt lat="46.70819" lon="5.65832">
        <ele>455.60000610352</ele>
        <time>2022-09-15T11:08:44Z</time>
      </trkpt>
      <trkpt lat="46.70827" lon="5.65814">
        <ele>453.39999389648</ele>
        <time>2022-09-15T11:08:59Z</time>
      </trkpt>
      <trkpt lat="46.70834" lon="5.65803">
        <ele>451.39999389648</ele>
        <time>2022-09-15T11:09:16Z</time>
      </trkpt>
      <trkpt lat="46.70838" lon="5.65792">
        <ele>448.39999389648</ele>
        <time>2022-09-15T11:09:31Z</time>
      </trkpt>
      <trkpt lat="46.70842" lon="5.65789">
        <ele>447.79998779297</ele>
        <time>2022-09-15T11:09:36Z</time>
      </trkpt>
      <trkpt lat="46.70843" lon="5.65782">
        <ele>446.79998779297</ele>
        <time>2022-09-15T11:09:46Z</time>
      </trkpt>
      <trkpt lat="46.70847" lon="5.65773">
        <ele>445</ele>
        <time>2022-09-15T11:10:08Z</time>
      </trkpt>
      <trkpt lat="46.70852" lon="5.65779">
        <ele>445</ele>
        <time>2022-09-15T11:10:25Z</time>
      </trkpt>
      <trkpt lat="46.70856" lon="5.65785">
        <ele>445</ele>
        <time>2022-09-15T11:10:38Z</time>
      </trkpt>
      <trkpt lat="46.70857" lon="5.65784">
        <ele>445.20001220703</ele>
        <time>2022-09-15T11:10:52Z</time>
      </trkpt>
      <trkpt lat="46.70853" lon="5.65782">
        <ele>445.39999389648</ele>
        <time>2022-09-15T11:11:05Z</time>
      </trkpt>
      <trkpt lat="46.70852" lon="5.6578">
        <ele>445.39999389648</ele>
        <time>2022-09-15T11:11:09Z</time>
      </trkpt>
      <trkpt lat="46.70857" lon="5.65782">
        <ele>445.20001220703</ele>
        <time>2022-09-15T11:11:36Z</time>
      </trkpt>
      <trkpt lat="46.70857" lon="5.65776">
        <ele>445.39999389648</ele>
        <time>2022-09-15T11:11:56Z</time>
      </trkpt>
      <trkpt lat="46.70854" lon="5.65776">
        <ele>446.20001220703</ele>
        <time>2022-09-15T11:12:27Z</time>
      </trkpt>
      <trkpt lat="46.7086" lon="5.6578">
        <ele>445.79998779297</ele>
        <time>2022-09-15T11:12:51Z</time>
      </trkpt>
      <trkpt lat="46.70859" lon="5.65766">
        <ele>445.60000610352</ele>
        <time>2022-09-15T11:13:17Z</time>
      </trkpt>
      <trkpt lat="46.70861" lon="5.65753">
        <ele>444.39999389648</ele>
        <time>2022-09-15T11:13:27Z</time>
      </trkpt>
      <trkpt lat="46.70864" lon="5.65746">
        <ele>443.39999389648</ele>
        <time>2022-09-15T11:13:35Z</time>
      </trkpt>
      <trkpt lat="46.70869" lon="5.65736">
        <ele>442</ele>
        <time>2022-09-15T11:13:48Z</time>
      </trkpt>
      <trkpt lat="46.70874" lon="5.65725">
        <ele>440.60000610352</ele>
        <time>2022-09-15T11:13:56Z</time>
      </trkpt>
      <trkpt lat="46.70874" lon="5.6572">
        <ele>440</ele>
        <time>2022-09-15T11:14:00Z</time>
      </trkpt>
      <trkpt lat="46.70877" lon="5.65696">
        <ele>437.39999389648</ele>
        <time>2022-09-15T11:14:19Z</time>
      </trkpt>
      <trkpt lat="46.70877" lon="5.65678">
        <ele>434.79998779297</ele>
        <time>2022-09-15T11:14:34Z</time>
      </trkpt>
      <trkpt lat="46.70878" lon="5.65657">
        <ele>431.60000610352</ele>
        <time>2022-09-15T11:14:49Z</time>
      </trkpt>
      <trkpt lat="46.70877" lon="5.65626">
        <ele>429</ele>
        <time>2022-09-15T11:15:08Z</time>
      </trkpt>
      <trkpt lat="46.70876" lon="5.65606">
        <ele>426.39999389648</ele>
        <time>2022-09-15T11:15:25Z</time>
      </trkpt>
      <trkpt lat="46.70877" lon="5.6559">
        <ele>423.39999389648</ele>
        <time>2022-09-15T11:15:38Z</time>
      </trkpt>
      <trkpt lat="46.70871" lon="5.65576">
        <ele>420.20001220703</ele>
        <time>2022-09-15T11:15:56Z</time>
      </trkpt>
      <trkpt lat="46.70864" lon="5.65558">
        <ele>417.39999389648</ele>
        <time>2022-09-15T11:16:12Z</time>
      </trkpt>
      <trkpt lat="46.70863" lon="5.65542">
        <ele>414.39999389648</ele>
        <time>2022-09-15T11:16:27Z</time>
      </trkpt>
      <trkpt lat="46.70858" lon="5.65515">
        <ele>411.39999389648</ele>
        <time>2022-09-15T11:16:46Z</time>
      </trkpt>
      <trkpt lat="46.70851" lon="5.65499">
        <ele>409</ele>
        <time>2022-09-15T11:17:03Z</time>
      </trkpt>
      <trkpt lat="46.7085" lon="5.65486">
        <ele>406.20001220703</ele>
        <time>2022-09-15T11:17:20Z</time>
      </trkpt>
      <trkpt lat="46.70842" lon="5.65472">
        <ele>404.60000610352</ele>
        <time>2022-09-15T11:17:33Z</time>
      </trkpt>
      <trkpt lat="46.70842" lon="5.65469">
        <ele>404.20001220703</ele>
        <time>2022-09-15T11:17:35Z</time>
      </trkpt>
      <trkpt lat="46.70839" lon="5.65444">
        <ele>401.60000610352</ele>
        <time>2022-09-15T11:17:53Z</time>
      </trkpt>
      <trkpt lat="46.70835" lon="5.65425">
        <ele>400.20001220703</ele>
        <time>2022-09-15T11:18:05Z</time>
      </trkpt>
      <trkpt lat="46.70833" lon="5.65405">
        <ele>398</ele>
        <time>2022-09-15T11:18:25Z</time>
      </trkpt>
      <trkpt lat="46.70833" lon="5.65403">
        <ele>397.79998779297</ele>
        <time>2022-09-15T11:18:29Z</time>
      </trkpt>
      <trkpt lat="46.70826" lon="5.65384">
        <ele>396.20001220703</ele>
        <time>2022-09-15T11:18:51Z</time>
      </trkpt>
      <trkpt lat="46.70826" lon="5.65377">
        <ele>394.20001220703</ele>
        <time>2022-09-15T11:19:07Z</time>
      </trkpt>
      <trkpt lat="46.70824" lon="5.65366">
        <ele>394</ele>
        <time>2022-09-15T11:19:16Z</time>
      </trkpt>
      <trkpt lat="46.7082" lon="5.6535">
        <ele>391.79998779297</ele>
        <time>2022-09-15T11:19:38Z</time>
      </trkpt>
      <trkpt lat="46.70819" lon="5.65349">
        <ele>391.79998779297</ele>
        <time>2022-09-15T11:19:40Z</time>
      </trkpt>
      <trkpt lat="46.70808" lon="5.65332">
        <ele>392</ele>
        <time>2022-09-15T11:19:58Z</time>
      </trkpt>
      <trkpt lat="46.70807" lon="5.65318">
        <ele>390.20001220703</ele>
        <time>2022-09-15T11:20:13Z</time>
      </trkpt>
      <trkpt lat="46.70807" lon="5.653">
        <ele>389.79998779297</ele>
        <time>2022-09-15T11:20:25Z</time>
      </trkpt>
      <trkpt lat="46.70804" lon="5.65274">
        <ele>388.20001220703</ele>
        <time>2022-09-15T11:20:43Z</time>
      </trkpt>
      <trkpt lat="46.70799" lon="5.65265">
        <ele>387.20001220703</ele>
        <time>2022-09-15T11:20:54Z</time>
      </trkpt>
      <trkpt lat="46.70794" lon="5.65241">
        <ele>384.60000610352</ele>
        <time>2022-09-15T11:21:13Z</time>
      </trkpt>
      <trkpt lat="46.70791" lon="5.65223">
        <ele>382.60000610352</ele>
        <time>2022-09-15T11:21:32Z</time>
      </trkpt>
      <trkpt lat="46.70789" lon="5.65199">
        <ele>380.39999389648</ele>
        <time>2022-09-15T11:21:53Z</time>
      </trkpt>
      <trkpt lat="46.70789" lon="5.65191">
        <ele>378.79998779297</ele>
        <time>2022-09-15T11:22:06Z</time>
      </trkpt>
      <trkpt lat="46.70794" lon="5.6518">
        <ele>376.60000610352</ele>
        <time>2022-09-15T11:22:21Z</time>
      </trkpt>
      <trkpt lat="46.70797" lon="5.6517">
        <ele>374.60000610352</ele>
        <time>2022-09-15T11:22:46Z</time>
      </trkpt>
      <trkpt lat="46.70798" lon="5.65167">
        <ele>374.20001220703</ele>
        <time>2022-09-15T11:22:49Z</time>
      </trkpt>
      <trkpt lat="46.70804" lon="5.65147">
        <ele>372.60000610352</ele>
        <time>2022-09-15T11:23:07Z</time>
      </trkpt>
      <trkpt lat="46.70808" lon="5.65135">
        <ele>372.60000610352</ele>
        <time>2022-09-15T11:23:17Z</time>
      </trkpt>
      <trkpt lat="46.70818" lon="5.65105">
        <ele>372.20001220703</ele>
        <time>2022-09-15T11:23:38Z</time>
      </trkpt>
      <trkpt lat="46.70824" lon="5.65082">
        <ele>371.39999389648</ele>
        <time>2022-09-15T11:23:57Z</time>
      </trkpt>
      <trkpt lat="46.70827" lon="5.65058">
        <ele>371.20001220703</ele>
        <time>2022-09-15T11:24:18Z</time>
      </trkpt>
      <trkpt lat="46.7083" lon="5.6504">
        <ele>371.60000610352</ele>
        <time>2022-09-15T11:24:36Z</time>
      </trkpt>
      <trkpt lat="46.70832" lon="5.65017">
        <ele>370.60000610352</ele>
        <time>2022-09-15T11:24:55Z</time>
      </trkpt>
      <trkpt lat="46.70834" lon="5.65007">
        <ele>369.39999389648</ele>
        <time>2022-09-15T11:25:11Z</time>
      </trkpt>
      <trkpt lat="46.70831" lon="5.64994">
        <ele>368</ele>
        <time>2022-09-15T11:25:25Z</time>
      </trkpt>
      <trkpt lat="46.70831" lon="5.64996">
        <ele>367.79998779297</ele>
        <time>2022-09-15T11:25:43Z</time>
      </trkpt>
      <trkpt lat="46.70834" lon="5.64999">
        <ele>368.20001220703</ele>
        <time>2022-09-15T11:26:07Z</time>
      </trkpt>
      <trkpt lat="46.70834" lon="5.65002">
        <ele>368.20001220703</ele>
        <time>2022-09-15T11:26:24Z</time>
      </trkpt>
      <trkpt lat="46.70833" lon="5.64999">
        <ele>368.20001220703</ele>
        <time>2022-09-15T11:26:31Z</time>
      </trkpt>
      <trkpt lat="46.70833" lon="5.65007">
        <ele>368.79998779297</ele>
        <time>2022-09-15T11:26:54Z</time>
      </trkpt>
      <trkpt lat="46.70834" lon="5.65009">
        <ele>368.79998779297</ele>
        <time>2022-09-15T11:27:03Z</time>
      </trkpt>
      <trkpt lat="46.70836" lon="5.65005">
        <ele>368.79998779297</ele>
        <time>2022-09-15T11:27:17Z</time>
      </trkpt>
      <trkpt lat="46.70835" lon="5.65006">
        <ele>369.20001220703</ele>
        <time>2022-09-15T11:27:31Z</time>
      </trkpt>
      <trkpt lat="46.70836" lon="5.65005">
        <ele>369</ele>
        <time>2022-09-15T11:27:44Z</time>
      </trkpt>
      <trkpt lat="46.70831" lon="5.65">
        <ele>368.79998779297</ele>
        <time>2022-09-15T11:27:57Z</time>
      </trkpt>
      <trkpt lat="46.70833" lon="5.65003">
        <ele>368.79998779297</ele>
        <time>2022-09-15T11:28:14Z</time>
      </trkpt>
      <trkpt lat="46.70834" lon="5.65008">
        <ele>368.79998779297</ele>
        <time>2022-09-15T11:28:27Z</time>
      </trkpt>
      <trkpt lat="46.70835" lon="5.65007">
        <ele>368.79998779297</ele>
        <time>2022-09-15T11:28:29Z</time>
      </trkpt>
      <trkpt lat="46.70833" lon="5.65002">
        <ele>369</ele>
        <time>2022-09-15T11:28:46Z</time>
      </trkpt>
      <trkpt lat="46.70831" lon="5.65">
        <ele>369</ele>
        <time>2022-09-15T11:29:01Z</time>
      </trkpt>
      <trkpt lat="46.70833" lon="5.65004">
        <ele>368.79998779297</ele>
        <time>2022-09-15T11:29:32Z</time>
      </trkpt>
      <trkpt lat="46.70833" lon="5.65">
        <ele>368.79998779297</ele>
        <time>2022-09-15T11:30:03Z</time>
      </trkpt>
      <trkpt lat="46.70831" lon="5.64999">
        <ele>369</ele>
        <time>2022-09-15T11:30:34Z</time>
      </trkpt>
      <trkpt lat="46.70832" lon="5.65">
        <ele>369.39999389648</ele>
        <time>2022-09-15T11:31:02Z</time>
      </trkpt>
      <trkpt lat="46.70832" lon="5.64999">
        <ele>369.39999389648</ele>
        <time>2022-09-15T11:31:31Z</time>
      </trkpt>
      <trkpt lat="46.70832" lon="5.65002">
        <ele>369.20001220703</ele>
        <time>2022-09-15T11:31:54Z</time>
      </trkpt>
      <trkpt lat="46.70833" lon="5.65004">
        <ele>369.20001220703</ele>
        <time>2022-09-15T11:32:14Z</time>
      </trkpt>
      <trkpt lat="46.70833" lon="5.65003">
        <ele>369.20001220703</ele>
        <time>2022-09-15T11:32:38Z</time>
      </trkpt>
      <trkpt lat="46.70833" lon="5.65004">
        <ele>369.39999389648</ele>
        <time>2022-09-15T11:33:05Z</time>
      </trkpt>
      <trkpt lat="46.70831" lon="5.64999">
        <ele>369.20001220703</ele>
        <time>2022-09-15T11:33:37Z</time>
      </trkpt>
      <trkpt lat="46.7083" lon="5.65004">
        <ele>369</ele>
        <time>2022-09-15T11:34:17Z</time>
      </trkpt>
      <trkpt lat="46.70832" lon="5.65003">
        <ele>368.79998779297</ele>
        <time>2022-09-15T11:34:35Z</time>
      </trkpt>
      <trkpt lat="46.70831" lon="5.65002">
        <ele>369</ele>
        <time>2022-09-15T11:34:57Z</time>
      </trkpt>
      <trkpt lat="46.70831" lon="5.65001">
        <ele>369</ele>
        <time>2022-09-15T11:35:13Z</time>
      </trkpt>
      <trkpt lat="46.70832" lon="5.65002">
        <ele>368.79998779297</ele>
        <time>2022-09-15T11:35:37Z</time>
      </trkpt>
      <trkpt lat="46.70829" lon="5.64999">
        <ele>368.39999389648</ele>
        <time>2022-09-15T11:36:09Z</time>
      </trkpt>
      <trkpt lat="46.7083" lon="5.65">
        <ele>368.39999389648</ele>
        <time>2022-09-15T11:36:33Z</time>
      </trkpt>
      <trkpt lat="46.7083" lon="5.64999">
        <ele>368.60000610352</ele>
        <time>2022-09-15T11:37:15Z</time>
      </trkpt>
      <trkpt lat="46.70831" lon="5.65001">
        <ele>368.39999389648</ele>
        <time>2022-09-15T11:37:46Z</time>
      </trkpt>
      <trkpt lat="46.70829" lon="5.65">
        <ele>368.60000610352</ele>
        <time>2022-09-15T11:38:24Z</time>
      </trkpt>
      <trkpt lat="46.70829" lon="5.65002">
        <ele>368.39999389648</ele>
        <time>2022-09-15T11:38:51Z</time>
      </trkpt>
      <trkpt lat="46.7083" lon="5.65">
        <ele>368.60000610352</ele>
        <time>2022-09-15T11:39:33Z</time>
      </trkpt>
      <trkpt lat="46.70831" lon="5.64998">
        <ele>368.60000610352</ele>
        <time>2022-09-15T11:40:20Z</time>
      </trkpt>
      <trkpt lat="46.7083" lon="5.64996">
        <ele>368.60000610352</ele>
        <time>2022-09-15T11:41:04Z</time>
      </trkpt>
      <trkpt lat="46.70829" lon="5.6499">
        <ele>368.39999389648</ele>
        <time>2022-09-15T11:42:09Z</time>
      </trkpt>
      <trkpt lat="46.70828" lon="5.64995">
        <ele>368.60000610352</ele>
        <time>2022-09-15T11:42:42Z</time>
      </trkpt>
      <trkpt lat="46.70827" lon="5.64995">
        <ele>368.60000610352</ele>
        <time>2022-09-15T11:42:59Z</time>
      </trkpt>
      <trkpt lat="46.70827" lon="5.64998">
        <ele>368.39999389648</ele>
        <time>2022-09-15T11:43:27Z</time>
      </trkpt>
      <trkpt lat="46.70829" lon="5.64999">
        <ele>368.20001220703</ele>
        <time>2022-09-15T11:43:57Z</time>
      </trkpt>
      <trkpt lat="46.7083" lon="5.64995">
        <ele>368</ele>
        <time>2022-09-15T11:44:50Z</time>
      </trkpt>
      <trkpt lat="46.70831" lon="5.64994">
        <ele>367.79998779297</ele>
        <time>2022-09-15T11:45:48Z</time>
      </trkpt>
      <trkpt lat="46.70831" lon="5.64995">
        <ele>367.60000610352</ele>
        <time>2022-09-15T11:46:18Z</time>
      </trkpt>
      <trkpt lat="46.70828" lon="5.64993">
        <ele>367.39999389648</ele>
        <time>2022-09-15T11:46:59Z</time>
      </trkpt>
      <trkpt lat="46.70829" lon="5.64997">
        <ele>367.20001220703</ele>
        <time>2022-09-15T11:47:29Z</time>
      </trkpt>
      <trkpt lat="46.7083" lon="5.64995">
        <ele>367.20001220703</ele>
        <time>2022-09-15T11:47:58Z</time>
      </trkpt>
      <trkpt lat="46.70831" lon="5.64996">
        <ele>367.20001220703</ele>
        <time>2022-09-15T11:48:31Z</time>
      </trkpt>
      <trkpt lat="46.70831" lon="5.64998">
        <ele>367.39999389648</ele>
        <time>2022-09-15T11:48:56Z</time>
      </trkpt>
      <trkpt lat="46.70831" lon="5.64996">
        <ele>367.20001220703</ele>
        <time>2022-09-15T11:49:30Z</time>
      </trkpt>
      <trkpt lat="46.70829" lon="5.64995">
        <ele>367.20001220703</ele>
        <time>2022-09-15T11:49:52Z</time>
      </trkpt>
      <trkpt lat="46.70827" lon="5.64999">
        <ele>367</ele>
        <time>2022-09-15T11:50:23Z</time>
      </trkpt>
      <trkpt lat="46.70828" lon="5.64999">
        <ele>367</ele>
        <time>2022-09-15T11:51:03Z</time>
      </trkpt>
      <trkpt lat="46.70828" lon="5.65001">
        <ele>367</ele>
        <time>2022-09-15T11:51:25Z</time>
      </trkpt>
      <trkpt lat="46.70828" lon="5.64997">
        <ele>367</ele>
        <time>2022-09-15T11:52:05Z</time>
      </trkpt>
      <trkpt lat="46.70829" lon="5.64999">
        <ele>366.20001220703</ele>
        <time>2022-09-15T11:53:22Z</time>
      </trkpt>
      <trkpt lat="46.70829" lon="5.64997">
        <ele>366</ele>
        <time>2022-09-15T11:53:58Z</time>
      </trkpt>
      <trkpt lat="46.70829" lon="5.64998">
        <ele>365.79998779297</ele>
        <time>2022-09-15T11:54:48Z</time>
      </trkpt>
      <trkpt lat="46.70828" lon="5.65002">
        <ele>365.39999389648</ele>
        <time>2022-09-15T11:55:40Z</time>
      </trkpt>
      <trkpt lat="46.70828" lon="5.64998">
        <ele>365.39999389648</ele>
        <time>2022-09-15T11:56:18Z</time>
      </trkpt>
      <trkpt lat="46.70827" lon="5.65">
        <ele>365.39999389648</ele>
        <time>2022-09-15T11:57:22Z</time>
      </trkpt>
      <trkpt lat="46.70828" lon="5.65">
        <ele>365</ele>
        <time>2022-09-15T11:58:35Z</time>
      </trkpt>
      <trkpt lat="46.70828" lon="5.64999">
        <ele>364.79998779297</ele>
        <time>2022-09-15T11:59:36Z</time>
      </trkpt>
      <trkpt lat="46.70828" lon="5.65002">
        <ele>364.60000610352</ele>
        <time>2022-09-15T12:00:24Z</time>
      </trkpt>
      <trkpt lat="46.70829" lon="5.65">
        <ele>364.79998779297</ele>
        <time>2022-09-15T12:01:10Z</time>
      </trkpt>
      <trkpt lat="46.70829" lon="5.65003">
        <ele>364.60000610352</ele>
        <time>2022-09-15T12:02:11Z</time>
      </trkpt>
      <trkpt lat="46.70831" lon="5.65002">
        <ele>364.20001220703</ele>
        <time>2022-09-15T12:04:02Z</time>
      </trkpt>
      <trkpt lat="46.70829" lon="5.65004">
        <ele>364</ele>
        <time>2022-09-15T12:05:45Z</time>
      </trkpt>
      <trkpt lat="46.70831" lon="5.65001">
        <ele>363.79998779297</ele>
        <time>2022-09-15T12:06:21Z</time>
      </trkpt>
      <trkpt lat="46.7083" lon="5.65002">
        <ele>363.60000610352</ele>
        <time>2022-09-15T12:06:44Z</time>
      </trkpt>
      <trkpt lat="46.7083" lon="5.65003">
        <ele>363.39999389648</ele>
        <time>2022-09-15T12:07:18Z</time>
      </trkpt>
      <trkpt lat="46.70829" lon="5.65005">
        <ele>363.60000610352</ele>
        <time>2022-09-15T12:07:48Z</time>
      </trkpt>
      <trkpt lat="46.7083" lon="5.65002">
        <ele>363.39999389648</ele>
        <time>2022-09-15T12:08:30Z</time>
      </trkpt>
      <trkpt lat="46.70829" lon="5.65002">
        <ele>363.20001220703</ele>
        <time>2022-09-15T12:08:56Z</time>
      </trkpt>
      <trkpt lat="46.70828" lon="5.64998">
        <ele>363</ele>
        <time>2022-09-15T12:09:15Z</time>
      </trkpt>
      <trkpt lat="46.7083" lon="5.64994">
        <ele>363</ele>
        <time>2022-09-15T12:09:29Z</time>
      </trkpt>
      <trkpt lat="46.70831" lon="5.64979">
        <ele>360.79998779297</ele>
        <time>2022-09-15T12:10:09Z</time>
      </trkpt>
      <trkpt lat="46.70835" lon="5.64957">
        <ele>357.60000610352</ele>
        <time>2022-09-15T12:10:31Z</time>
      </trkpt>
      <trkpt lat="46.70839" lon="5.6494">
        <ele>354.39999389648</ele>
        <time>2022-09-15T12:10:48Z</time>
      </trkpt>
      <trkpt lat="46.70839" lon="5.64935">
        <ele>353.39999389648</ele>
        <time>2022-09-15T12:10:53Z</time>
      </trkpt>
      <trkpt lat="46.70824" lon="5.64936">
        <ele>350.20001220703</ele>
        <time>2022-09-15T12:11:13Z</time>
      </trkpt>
      <trkpt lat="46.70823" lon="5.64936">
        <ele>349.79998779297</ele>
        <time>2022-09-15T12:11:15Z</time>
      </trkpt>
      <trkpt lat="46.70811" lon="5.64929">
        <ele>347.20001220703</ele>
        <time>2022-09-15T12:11:32Z</time>
      </trkpt>
      <trkpt lat="46.70807" lon="5.64934">
        <ele>346</ele>
        <time>2022-09-15T12:11:41Z</time>
      </trkpt>
      <trkpt lat="46.70812" lon="5.6494">
        <ele>345.79998779297</ele>
        <time>2022-09-15T12:12:05Z</time>
      </trkpt>
      <trkpt lat="46.70811" lon="5.64929">
        <ele>345.79998779297</ele>
        <time>2022-09-15T12:12:14Z</time>
      </trkpt>
      <trkpt lat="46.70821" lon="5.64922">
        <ele>344.39999389648</ele>
        <time>2022-09-15T12:12:47Z</time>
      </trkpt>
      <trkpt lat="46.70822" lon="5.64916">
        <ele>343.79998779297</ele>
        <time>2022-09-15T12:12:52Z</time>
      </trkpt>
      <trkpt lat="46.70824" lon="5.64912">
        <ele>343.60000610352</ele>
        <time>2022-09-15T12:13:11Z</time>
      </trkpt>
      <trkpt lat="46.7081" lon="5.64927">
        <ele>342.79998779297</ele>
        <time>2022-09-15T12:13:36Z</time>
      </trkpt>
      <trkpt lat="46.70805" lon="5.64928">
        <ele>341.39999389648</ele>
        <time>2022-09-15T12:13:47Z</time>
      </trkpt>
      <trkpt lat="46.70792" lon="5.6493">
        <ele>339</ele>
        <time>2022-09-15T12:14:04Z</time>
      </trkpt>
      <trkpt lat="46.7078" lon="5.6492">
        <ele>336</ele>
        <time>2022-09-15T12:14:25Z</time>
      </trkpt>
      <trkpt lat="46.70775" lon="5.64913">
        <ele>334</ele>
        <time>2022-09-15T12:14:42Z</time>
      </trkpt>
      <trkpt lat="46.70773" lon="5.64906">
        <ele>333.79998779297</ele>
        <time>2022-09-15T12:14:53Z</time>
      </trkpt>
      <trkpt lat="46.70766" lon="5.64906">
        <ele>333</ele>
        <time>2022-09-15T12:15:07Z</time>
      </trkpt>
      <trkpt lat="46.70759" lon="5.64901">
        <ele>332</ele>
        <time>2022-09-15T12:15:19Z</time>
      </trkpt>
      <trkpt lat="46.7075" lon="5.64905">
        <ele>331.20001220703</ele>
        <time>2022-09-15T12:15:26Z</time>
      </trkpt>
      <trkpt lat="46.70743" lon="5.64903">
        <ele>330.60000610352</ele>
        <time>2022-09-15T12:15:36Z</time>
      </trkpt>
      <trkpt lat="46.70721" lon="5.64881">
        <ele>328</ele>
        <time>2022-09-15T12:16:11Z</time>
      </trkpt>
      <trkpt lat="46.70715" lon="5.64881">
        <ele>327.39999389648</ele>
        <time>2022-09-15T12:16:16Z</time>
      </trkpt>
      <trkpt lat="46.70709" lon="5.64881">
        <ele>326.79998779297</ele>
        <time>2022-09-15T12:16:22Z</time>
      </trkpt>
      <trkpt lat="46.70714" lon="5.64869">
        <ele>326</ele>
        <time>2022-09-15T12:16:29Z</time>
      </trkpt>
      <trkpt lat="46.70712" lon="5.64854">
        <ele>324.79998779297</ele>
        <time>2022-09-15T12:16:41Z</time>
      </trkpt>
      <trkpt lat="46.70712" lon="5.64844">
        <ele>324</ele>
        <time>2022-09-15T12:16:49Z</time>
      </trkpt>
      <trkpt lat="46.70713" lon="5.64833">
        <ele>323.20001220703</ele>
        <time>2022-09-15T12:16:59Z</time>
      </trkpt>
      <trkpt lat="46.70713" lon="5.64825">
        <ele>322.20001220703</ele>
        <time>2022-09-15T12:17:15Z</time>
      </trkpt>
      <trkpt lat="46.70703" lon="5.64815">
        <ele>321.60000610352</ele>
        <time>2022-09-15T12:17:30Z</time>
      </trkpt>
      <trkpt lat="46.70702" lon="5.64814">
        <ele>321.60000610352</ele>
        <time>2022-09-15T12:17:31Z</time>
      </trkpt>
      <trkpt lat="46.70701" lon="5.64802">
        <ele>321.39999389648</ele>
        <time>2022-09-15T12:17:41Z</time>
      </trkpt>
      <trkpt lat="46.70699" lon="5.64792">
        <ele>321.20001220703</ele>
        <time>2022-09-15T12:17:49Z</time>
      </trkpt>
      <trkpt lat="46.70704" lon="5.64786">
        <ele>320.79998779297</ele>
        <time>2022-09-15T12:18:00Z</time>
      </trkpt>
      <trkpt lat="46.70711" lon="5.64782">
        <ele>320.60000610352</ele>
        <time>2022-09-15T12:18:09Z</time>
      </trkpt>
      <trkpt lat="46.70718" lon="5.64787">
        <ele>320.39999389648</ele>
        <time>2022-09-15T12:18:15Z</time>
      </trkpt>
      <trkpt lat="46.70728" lon="5.64784">
        <ele>319.79998779297</ele>
        <time>2022-09-15T12:18:26Z</time>
      </trkpt>
      <trkpt lat="46.70729" lon="5.64781">
        <ele>319.60000610352</ele>
        <time>2022-09-15T12:18:29Z</time>
      </trkpt>
      <trkpt lat="46.70736" lon="5.64767">
        <ele>319.39999389648</ele>
        <time>2022-09-15T12:18:38Z</time>
      </trkpt>
      <trkpt lat="46.70742" lon="5.64762">
        <ele>319.20001220703</ele>
        <time>2022-09-15T12:18:45Z</time>
      </trkpt>
      <trkpt lat="46.70749" lon="5.64758">
        <ele>319</ele>
        <time>2022-09-15T12:18:53Z</time>
      </trkpt>
      <trkpt lat="46.70754" lon="5.64759">
        <ele>318.79998779297</ele>
        <time>2022-09-15T12:19:01Z</time>
      </trkpt>
      <trkpt lat="46.70765" lon="5.64751">
        <ele>318.60000610352</ele>
        <time>2022-09-15T12:19:16Z</time>
      </trkpt>
      <trkpt lat="46.70778" lon="5.64749">
        <ele>318.60000610352</ele>
        <time>2022-09-15T12:19:31Z</time>
      </trkpt>
      <trkpt lat="46.70795" lon="5.6475">
        <ele>319.20001220703</ele>
        <time>2022-09-15T12:19:48Z</time>
      </trkpt>
      <trkpt lat="46.70799" lon="5.64752">
        <ele>320</ele>
        <time>2022-09-15T12:19:56Z</time>
      </trkpt>
      <trkpt lat="46.70808" lon="5.64752">
        <ele>321.20001220703</ele>
        <time>2022-09-15T12:20:10Z</time>
      </trkpt>
      <trkpt lat="46.70813" lon="5.64745">
        <ele>322</ele>
        <time>2022-09-15T12:20:20Z</time>
      </trkpt>
      <trkpt lat="46.70824" lon="5.64742">
        <ele>322.60000610352</ele>
        <time>2022-09-15T12:20:29Z</time>
      </trkpt>
      <trkpt lat="46.7083" lon="5.64738">
        <ele>323.39999389648</ele>
        <time>2022-09-15T12:20:37Z</time>
      </trkpt>
      <trkpt lat="46.70836" lon="5.64736">
        <ele>324.20001220703</ele>
        <time>2022-09-15T12:20:45Z</time>
      </trkpt>
      <trkpt lat="46.7085" lon="5.64726">
        <ele>325.60000610352</ele>
        <time>2022-09-15T12:21:04Z</time>
      </trkpt>
      <trkpt lat="46.70864" lon="5.64723">
        <ele>326.20001220703</ele>
        <time>2022-09-15T12:21:15Z</time>
      </trkpt>
      <trkpt lat="46.70881" lon="5.64722">
        <ele>326.79998779297</ele>
        <time>2022-09-15T12:21:29Z</time>
      </trkpt>
      <trkpt lat="46.70884" lon="5.64715">
        <ele>327.79998779297</ele>
        <time>2022-09-15T12:21:46Z</time>
      </trkpt>
      <trkpt lat="46.70888" lon="5.64707">
        <ele>328.60000610352</ele>
        <time>2022-09-15T12:22:13Z</time>
      </trkpt>
      <trkpt lat="46.70886" lon="5.64707">
        <ele>328.60000610352</ele>
        <time>2022-09-15T12:22:19Z</time>
      </trkpt>
      <trkpt lat="46.70883" lon="5.64715">
        <ele>328.60000610352</ele>
        <time>2022-09-15T12:22:27Z</time>
      </trkpt>
      <trkpt lat="46.70888" lon="5.64723">
        <ele>328.60000610352</ele>
        <time>2022-09-15T12:22:39Z</time>
      </trkpt>
      <trkpt lat="46.70888" lon="5.6472">
        <ele>345.39999389648</ele>
        <time>2022-09-15T12:23:00Z</time>
      </trkpt>
    </trkseg>
  </trk>
</gpx>